PORTS® Data Listing: 9410660 Los Angeles, CA

CO-OPS RAW PORTS DATA

************************      PRELIMINARY DATA      ************************** 

     THIS RAW DATA HAS NOT BEEN SUBJECT TO THE NATIONAL OCEAN SERVICE'S        
     QUALITY CONTROL OR QUALITY ASSURANCE PROCEDURES AND DOES NOT MEET         
     THE CRITERIA AND STANDARDS OF OFFICIAL NATIONAL OCEAN SERVICE             
     DATA.  IT IS RELEASED FOR LIMITED PUBLIC USE AS PRELIMINARY DATA TO       
     BE USED ONLY WITH APPROPRIATE CAUTION.                                    

************************      PRELIMINARY DATA      ************************** 


       CD   -   Calendar date
       T    -   Time
       TZ   -   Timezone
       PW   -   Predicted water level (feet above MLLW)
       OW   -   Observed water level (feet above MLLW)
       WS   -   Wind speed (knots)
       WD   -   Wind direction (degrees true)
       WG   -   Wind gust (knots)
       AT   -   Air temperature (degrees farenheit)
       WT   -   Water temperature (degrees farenheit)
       AP   -   Air pressure (millibars)
       SA   -   Salinty (PSU - Practical Salinity Units)
       SG   -   Specific gravity
       RH   -   Relative humidity
       AG   -   Air gap (feet)
       VI   -   Visibility (nautical miles)

       ** NOTE **
       A variable that has its data fields filled with "9"s, indicates that
       data was not collected for that sample period.
       **********


STATION NAME: Los Angeles (9410660)
****************************************************************************************************
    CD       T    TZ    PW     OW    WS   WD   WG    AT    WT    AP    SA    SG     RH    AG   VI
****************************************************************************************************
2019/12/10 19:24 PST    3.46   3.65 -999 -999 -999 -99.9  63.3 1022.7 -9.9 -9.999 -99.9 -99.99 -9.99
2019/12/10 19:30 PST    3.52   3.62 -999 -999 -999 -99.9  63.3 1022.7 -9.9 -9.999 -99.9 -99.99 -9.99
2019/12/10 19:36 PST    3.57   3.63 -999 -999 -999 -99.9  63.3 1022.6 -9.9 -9.999 -99.9 -99.99 -9.99
2019/12/10 19:42 PST    3.62   3.72 -999 -999 -999 -99.9  63.3 1022.8 -9.9 -9.999 -99.9 -99.99 -9.99
2019/12/10 19:48 PST    3.66   3.81 -999 -999 -999 -99.9  63.3 1022.8 -9.9 -9.999 -99.9 -99.99 -9.99
2019/12/10 19:54 PST    3.70   3.83 -999 -999 -999 -99.9  63.3 1022.8 -9.9 -9.999 -99.9 -99.99 -9.99
2019/12/10 20:00 PST    3.74   3.85 -999 -999 -999 -99.9  63.3 1022.9 -9.9 -9.999 -99.9 -99.99 -9.99
2019/12/10 20:06 PST    3.77   3.86 -999 -999 -999 -99.9  63.3 1023.0 -9.9 -9.999 -99.9 -99.99 -9.99
2019/12/10 20:12 PST    3.80   3.93 -999 -999 -999 -99.9  63.3 1023.0 -9.9 -9.999 -99.9 -99.99 -9.99
2019/12/10 20:18 PST    3.82   3.98 -999 -999 -999 -99.9  63.3 1023.0 -9.9 -9.999 -99.9 -99.99 -9.99
2019/12/10 20:24 PST    3.84   3.97 -999 -999 -999 -99.9  63.3 1023.1 -9.9 -9.999 -99.9 -99.99 -9.99
2019/12/10 20:30 PST    3.85   3.92 -999 -999 -999 -99.9  63.3 1023.0 -9.9 -9.999 -99.9 -99.99 -9.99
2019/12/10 20:36 PST    3.86   3.90 -999 -999 -999 -99.9  63.3 1023.0 -9.9 -9.999 -99.9 -99.99 -9.99
2019/12/10 20:42 PST    3.86   3.94 -999 -999 -999 -99.9  63.3 1023.0 -9.9 -9.999 -99.9 -99.99 -9.99
2019/12/10 20:48 PST    3.86   3.99 -999 -999 -999 -99.9  63.3 1023.0 -9.9 -9.999 -99.9 -99.99 -9.99
2019/12/10 20:54 PST    3.86   3.98 -999 -999 -999 -99.9  63.3 1023.1 -9.9 -9.999 -99.9 -99.99 -9.99
2019/12/10 21:00 PST    3.85   4.01 -999 -999 -999 -99.9  63.3 1023.3 -9.9 -9.999 -99.9 -99.99 -9.99
2019/12/10 21:06 PST    3.83   3.99 -999 -999 -999 -99.9  63.3 1023.4 -9.9 -9.999 -99.9 -99.99 -9.99
2019/12/10 21:12 PST    3.82   4.00 -999 -999 -999 -99.9  63.3 1023.3 -9.9 -9.999 -99.9 -99.99 -9.99
2019/12/10 21:18 PST    3.79   3.98 -999 -999 -999 -99.9  63.3 1023.3 -9.9 -9.999 -99.9 -99.99 -9.99
2019/12/10 21:24 PST    3.77   3.99 -999 -999 -999 -99.9  63.3 1023.3 -9.9 -9.999 -99.9 -99.99 -9.99
2019/12/10 21:30 PST    3.74   3.93 -999 -999 -999 -99.9  63.3 1023.4 -9.9 -9.999 -99.9 -99.99 -9.99
2019/12/10 21:36 PST    3.71   3.85 -999 -999 -999 -99.9  63.3 1023.4 -9.9 -9.999 -99.9 -99.99 -9.99
2019/12/10 21:42 PST    3.67   3.78 -999 -999 -999 -99.9  63.3 1023.3 -9.9 -9.999 -99.9 -99.99 -9.99
2019/12/10 21:48 PST    3.63   3.75 -999 -999 -999 -99.9  63.3 1023.3 -9.9 -9.999 -99.9 -99.99 -9.99
2019/12/10 21:54 PST    3.59   3.70 -999 -999 -999 -99.9  63.3 1023.2 -9.9 -9.999 -99.9 -99.99 -9.99
2019/12/10 22:00 PST    3.55   3.67 -999 -999 -999 -99.9  63.3 1023.2 -9.9 -9.999 -99.9 -99.99 -9.99
2019/12/10 22:06 PST    3.50   3.63 -999 -999 -999 -99.9  63.3 1023.2 -9.9 -9.999 -99.9 -99.99 -9.99
2019/12/10 22:12 PST    3.45   3.57 -999 -999 -999 -99.9  63.3 1023.3 -9.9 -9.999 -99.9 -99.99 -9.99
2019/12/10 22:18 PST    3.40   3.51 -999 -999 -999 -99.9  63.3 1023.4 -9.9 -9.999 -99.9 -99.99 -9.99
2019/12/10 22:24 PST    3.34   3.46 -999 -999 -999 -99.9  63.3 1023.4 -9.9 -9.999 -99.9 -99.99 -9.99
2019/12/10 22:30 PST    3.28   3.42 -999 -999 -999 -99.9  63.3 1023.3 -9.9 -9.999 -99.9 -99.99 -9.99
2019/12/10 22:36 PST    3.23   3.33 -999 -999 -999 -99.9  63.3 1023.3 -9.9 -9.999 -99.9 -99.99 -9.99
2019/12/10 22:42 PST    3.17   3.28 -999 -999 -999 -99.9  63.3 1023.3 -9.9 -9.999 -99.9 -99.99 -9.99
2019/12/10 22:48 PST    3.11   3.21 -999 -999 -999 -99.9  63.3 1023.3 -9.9 -9.999 -99.9 -99.99 -9.99
2019/12/10 22:54 PST    3.05   3.20 -999 -999 -999 -99.9  63.3 1023.3 -9.9 -9.999 -99.9 -99.99 -9.99
2019/12/10 23:00 PST    2.99   3.14 -999 -999 -999 -99.9  63.3 1023.3 -9.9 -9.999 -99.9 -99.99 -9.99
2019/12/10 23:06 PST    2.92   3.09 -999 -999 -999 -99.9  63.3 1023.4 -9.9 -9.999 -99.9 -99.99 -9.99
2019/12/10 23:12 PST    2.86   3.05 -999 -999 -999 -99.9  63.3 1023.5 -9.9 -9.999 -99.9 -99.99 -9.99
2019/12/10 23:18 PST    2.80   3.01 -999 -999 -999 -99.9  63.3 1023.5 -9.9 -9.999 -99.9 -99.99 -9.99
2019/12/10 23:24 PST    2.74   2.95 -999 -999 -999 -99.9  63.3 1023.3 -9.9 -9.999 -99.9 -99.99 -9.99
2019/12/10 23:30 PST    2.68   2.87 -999 -999 -999 -99.9  63.3 1023.2 -9.9 -9.999 -99.9 -99.99 -9.99
2019/12/10 23:36 PST    2.62   2.78 -999 -999 -999 -99.9  63.3 1023.2 -9.9 -9.999 -99.9 -99.99 -9.99
2019/12/10 23:42 PST    2.56   2.74 -999 -999 -999 -99.9  63.3 1023.2 -9.9 -9.999 -99.9 -99.99 -9.99
2019/12/10 23:48 PST    2.50   2.69 -999 -999 -999 -99.9  63.3 1023.1 -9.9 -9.999 -99.9 -99.99 -9.99
2019/12/10 23:54 PST    2.44   2.65 -999 -999 -999 -99.9  63.3 1023.1 -9.9 -9.999 -99.9 -99.99 -9.99
2019/12/11 00:00 PST    2.39   2.58 -999 -999 -999 -99.9  63.3 1023.1 -9.9 -9.999 -99.9 -99.99 -9.99
2019/12/11 00:06 PST    2.34   2.53 -999 -999 -999 -99.9  63.3 1023.1 -9.9 -9.999 -99.9 -99.99 -9.99
2019/12/11 00:12 PST    2.29   2.49 -999 -999 -999 -99.9  63.3 1023.1 -9.9 -9.999 -99.9 -99.99 -9.99
2019/12/11 00:18 PST    2.24   2.49 -999 -999 -999 -99.9  63.3 1023.2 -9.9 -9.999 -99.9 -99.99 -9.99
2019/12/11 00:24 PST    2.19   2.42 -999 -999 -999 -99.9  63.3 1023.1 -9.9 -9.999 -99.9 -99.99 -9.99
2019/12/11 00:30 PST    2.15   2.36 -999 -999 -999 -99.9  63.3 1022.9 -9.9 -9.999 -99.9 -99.99 -9.99
2019/12/11 00:36 PST    2.11   2.31 -999 -999 -999 -99.9  63.3 1022.9 -9.9 -9.999 -99.9 -99.99 -9.99
2019/12/11 00:42 PST    2.08   2.27 -999 -999 -999 -99.9  63.3 1022.6 -9.9 -9.999 -99.9 -99.99 -9.99
2019/12/11 00:48 PST    2.05   2.21 -999 -999 -999 -99.9  63.3 1022.6 -9.9 -9.999 -99.9 -99.99 -9.99
2019/12/11 00:54 PST    2.02   2.18 -999 -999 -999 -99.9  63.3 1022.5 -9.9 -9.999 -99.9 -99.99 -9.99
2019/12/11 01:00 PST    1.99   2.20 -999 -999 -999 -99.9  63.3 1022.6 -9.9 -9.999 -99.9 -99.99 -9.99
2019/12/11 01:06 PST    1.97   2.21 -999 -999 -999 -99.9  63.3 1022.7 -9.9 -9.999 -99.9 -99.99 -9.99
2019/12/11 01:12 PST    1.96   2.21 -999 -999 -999 -99.9  63.3 1022.5 -9.9 -9.999 -99.9 -99.99 -9.99
2019/12/11 01:18 PST    1.94   2.25 -999 -999 -999 -99.9  63.3 1022.6 -9.9 -9.999 -99.9 -99.99 -9.99
2019/12/11 01:24 PST    1.93   2.23 -999 -999 -999 -99.9  63.3 1022.6 -9.9 -9.999 -99.9 -99.99 -9.99
2019/12/11 01:30 PST    1.93   2.24 -999 -999 -999 -99.9  63.3 1022.8 -9.9 -9.999 -99.9 -99.99 -9.99
2019/12/11 01:36 PST    1.93   2.25 -999 -999 -999 -99.9  63.3 1022.7 -9.9 -9.999 -99.9 -99.99 -9.99
2019/12/11 01:42 PST    1.94   2.26 -999 -999 -999 -99.9  63.3 1022.8 -9.9 -9.999 -99.9 -99.99 -9.99
2019/12/11 01:48 PST    1.95   2.19 -999 -999 -999 -99.9  63.3 1022.8 -9.9 -9.999 -99.9 -99.99 -9.99
2019/12/11 01:54 PST    1.96   2.21 -999 -999 -999 -99.9  63.3 1022.7 -9.9 -9.999 -99.9 -99.99 -9.99
2019/12/11 02:00 PST    1.98   2.25 -999 -999 -999 -99.9  63.3 1022.9 -9.9 -9.999 -99.9 -99.99 -9.99
2019/12/11 02:06 PST    2.00   2.27 -999 -999 -999 -99.9  63.3 1022.9 -9.9 -9.999 -99.9 -99.99 -9.99
2019/12/11 02:12 PST    2.03   2.33 -999 -999 -999 -99.9  63.3 1022.9 -9.9 -9.999 -99.9 -99.99 -9.99
2019/12/11 02:18 PST    2.06   2.40 -999 -999 -999 -99.9  63.3 1022.9 -9.9 -9.999 -99.9 -99.99 -9.99
2019/12/11 02:24 PST    2.10   2.46 -999 -999 -999 -99.9  63.3 1022.8 -9.9 -9.999 -99.9 -99.99 -9.99
2019/12/11 02:30 PST    2.14   2.44 -999 -999 -999 -99.9  63.3 1022.7 -9.9 -9.999 -99.9 -99.99 -9.99
2019/12/11 02:36 PST    2.19   2.53 -999 -999 -999 -99.9  63.3 1022.6 -9.9 -9.999 -99.9 -99.99 -9.99
2019/12/11 02:42 PST    2.24   2.60 -999 -999 -999 -99.9  63.3 1022.7 -9.9 -9.999 -99.9 -99.99 -9.99
2019/12/11 02:48 PST    2.30   2.60 -999 -999 -999 -99.9  63.3 1022.8 -9.9 -9.999 -99.9 -99.99 -9.99
2019/12/11 02:54 PST    2.36   2.60 -999 -999 -999 -99.9  63.3 1022.7 -9.9 -9.999 -99.9 -99.99 -9.99
2019/12/11 03:00 PST    2.42   2.69 -999 -999 -999 -99.9  63.3 1022.7 -9.9 -9.999 -99.9 -99.99 -9.99
2019/12/11 03:06 PST    2.49   2.78 -999 -999 -999 -99.9  63.3 1022.5 -9.9 -9.999 -99.9 -99.99 -9.99
2019/12/11 03:12 PST    2.56   2.90 -999 -999 -999 -99.9  63.3 1022.4 -9.9 -9.999 -99.9 -99.99 -9.99
2019/12/11 03:18 PST    2.64   2.97 -999 -999 -999 -99.9  63.3 1022.5 -9.9 -9.999 -99.9 -99.99 -9.99
2019/12/11 03:24 PST    2.72   3.02 -999 -999 -999 -99.9  63.3 1022.5 -9.9 -9.999 -99.9 -99.99 -9.99
2019/12/11 03:30 PST    2.81   3.09 -999 -999 -999 -99.9  63.3 1022.5 -9.9 -9.999 -99.9 -99.99 -9.99
2019/12/11 03:36 PST    2.89   3.16 -999 -999 -999 -99.9  63.3 1022.5 -9.9 -9.999 -99.9 -99.99 -9.99
2019/12/11 03:42 PST    2.98   3.22 -999 -999 -999 -99.9  63.3 1022.6 -9.9 -9.999 -99.9 -99.99 -9.99
2019/12/11 03:48 PST    3.08   3.34 -999 -999 -999 -99.9  63.3 1022.6 -9.9 -9.999 -99.9 -99.99 -9.99
2019/12/11 03:54 PST    3.17   3.44 -999 -999 -999 -99.9  63.3 1022.6 -9.9 -9.999 -99.9 -99.99 -9.99
2019/12/11 04:00 PST    3.27   3.53 -999 -999 -999 -99.9  63.3 1022.5 -9.9 -9.999 -99.9 -99.99 -9.99
2019/12/11 04:06 PST    3.37   3.57 -999 -999 -999 -99.9  63.1 1022.3 -9.9 -9.999 -99.9 -99.99 -9.99
2019/12/11 04:12 PST    3.47   3.74 -999 -999 -999 -99.9  63.1 1022.2 -9.9 -9.999 -99.9 -99.99 -9.99
2019/12/11 04:18 PST    3.58   3.88 -999 -999 -999 -99.9  63.1 1022.3 -9.9 -9.999 -99.9 -99.99 -9.99
2019/12/11 04:24 PST    3.68   3.96 -999 -999 -999 -99.9  63.1 1022.3 -9.9 -9.999 -99.9 -99.99 -9.99
2019/12/11 04:30 PST    3.79   4.06 -999 -999 -999 -99.9  63.1 1022.3 -9.9 -9.999 -99.9 -99.99 -9.99
2019/12/11 04:36 PST    3.90   4.22 -999 -999 -999 -99.9  63.1 1022.3 -9.9 -9.999 -99.9 -99.99 -9.99
2019/12/11 04:42 PST    4.01   4.31 -999 -999 -999 -99.9  63.1 1022.4 -9.9 -9.999 -99.9 -99.99 -9.99
2019/12/11 04:48 PST    4.12   4.44 -999 -999 -999 -99.9  63.1 1022.1 -9.9 -9.999 -99.9 -99.99 -9.99
2019/12/11 04:54 PST    4.23   4.56 -999 -999 -999 -99.9  63.1 1022.0 -9.9 -9.999 -99.9 -99.99 -9.99
2019/12/11 05:00 PST    4.34   4.68 -999 -999 -999 -99.9  63.1 1022.2 -9.9 -9.999 -99.9 -99.99 -9.99
2019/12/11 05:06 PST    4.45   4.79 -999 -999 -999 -99.9  63.1 1022.2 -9.9 -9.999 -99.9 -99.99 -9.99
2019/12/11 05:12 PST    4.56   4.90 -999 -999 -999 -99.9  63.1 1022.3 -9.9 -9.999 -99.9 -99.99 -9.99
2019/12/11 05:18 PST    4.67   4.99 -999 -999 -999 -99.9  63.1 1022.4 -9.9 -9.999 -99.9 -99.99 -9.99
2019/12/11 05:24 PST    4.77   5.08 -999 -999 -999 -99.9  63.1 1022.5 -9.9 -9.999 -99.9 -99.99 -9.99
2019/12/11 05:30 PST    4.88   5.15 -999 -999 -999 -99.9  63.1 1022.7 -9.9 -9.999 -99.9 -99.99 -9.99
2019/12/11 05:36 PST    4.98   5.31 -999 -999 -999 -99.9  63.1 1022.7 -9.9 -9.999 -99.9 -99.99 -9.99
2019/12/11 05:42 PST    5.08   5.44 -999 -999 -999 -99.9  63.1 1022.8 -9.9 -9.999 -99.9 -99.99 -9.99
2019/12/11 05:48 PST    5.18   5.46 -999 -999 -999 -99.9  63.1 1022.8 -9.9 -9.999 -99.9 -99.99 -9.99
2019/12/11 05:54 PST    5.28   5.50 -999 -999 -999 -99.9  63.1 1022.8 -9.9 -9.999 -99.9 -99.99 -9.99
2019/12/11 06:00 PST    5.37   5.60 -999 -999 -999 -99.9  63.1 1022.9 -9.9 -9.999 -99.9 -99.99 -9.99
2019/12/11 06:06 PST    5.47   5.64 -999 -999 -999 -99.9  63.1 1022.9 -9.9 -9.999 -99.9 -99.99 -9.99
2019/12/11 06:12 PST    5.55   5.77 -999 -999 -999 -99.9  63.3 1022.9 -9.9 -9.999 -99.9 -99.99 -9.99
2019/12/11 06:18 PST    5.64   5.79 -999 -999 -999 -99.9  63.3 1023.0 -9.9 -9.999 -99.9 -99.99 -9.99
2019/12/11 06:24 PST    5.72   5.96 -999 -999 -999 -99.9  63.3 1023.0 -9.9 -9.999 -99.9 -99.99 -9.99
2019/12/11 06:30 PST    5.79   6.01 -999 -999 -999 -99.9  63.3 1022.9 -9.9 -9.999 -99.9 -99.99 -9.99
2019/12/11 06:36 PST    5.86   6.12 -999 -999 -999 -99.9  63.3 1022.9 -9.9 -9.999 -99.9 -99.99 -9.99
2019/12/11 06:42 PST    5.93   6.12 -999 -999 -999 -99.9  63.3 1022.9 -9.9 -9.999 -99.9 -99.99 -9.99
2019/12/11 06:48 PST    5.99   6.23 -999 -999 -999 -99.9  63.3 1023.0 -9.9 -9.999 -99.9 -99.99 -9.99
2019/12/11 06:54 PST    6.05   6.23 -999 -999 -999 -99.9  63.3 1023.0 -9.9 -9.999 -99.9 -99.99 -9.99
2019/12/11 07:00 PST    6.10   6.26 -999 -999 -999 -99.9  63.3 1023.0 -9.9 -9.999 -99.9 -99.99 -9.99
2019/12/11 07:06 PST    6.15   6.29 -999 -999 -999 -99.9  63.3 1023.1 -9.9 -9.999 -99.9 -99.99 -9.99
2019/12/11 07:12 PST    6.19   6.39 -999 -999 -999 -99.9  63.3 1023.1 -9.9 -9.999 -99.9 -99.99 -9.99
2019/12/11 07:18 PST    6.22   6.45 -999 -999 -999 -99.9  63.3 1023.3 -9.9 -9.999 -99.9 -99.99 -9.99
2019/12/11 07:24 PST    6.25   6.50 -999 -999 -999 -99.9  63.3 1023.2 -9.9 -9.999 -99.9 -99.99 -9.99
2019/12/11 07:30 PST    6.28   6.52 -999 -999 -999 -99.9  63.3 1023.2 -9.9 -9.999 -99.9 -99.99 -9.99
2019/12/11 07:36 PST    6.30   6.52 -999 -999 -999 -99.9  63.3 1023.2 -9.9 -9.999 -99.9 -99.99 -9.99
2019/12/11 07:42 PST    6.31   6.49 -999 -999 -999 -99.9  63.3 1023.3 -9.9 -9.999 -99.9 -99.99 -9.99
2019/12/11 07:48 PST    6.31   6.52 -999 -999 -999 -99.9  63.3 1023.5 -9.9 -9.999 -99.9 -99.99 -9.99
2019/12/11 07:54 PST    6.31   6.48 -999 -999 -999 -99.9  63.3 1023.5 -9.9 -9.999 -99.9 -99.99 -9.99
2019/12/11 08:00 PST    6.30   6.44 -999 -999 -999 -99.9  63.3 1023.6 -9.9 -9.999 -99.9 -99.99 -9.99
2019/12/11 08:06 PST    6.29   6.42 -999 -999 -999 -99.9  63.3 1023.8 -9.9 -9.999 -99.9 -99.99 -9.99
2019/12/11 08:12 PST    6.27   6.46 -999 -999 -999 -99.9  63.3 1023.8 -9.9 -9.999 -99.9 -99.99 -9.99
2019/12/11 08:18 PST    6.24   6.46 -999 -999 -999 -99.9  63.3 1023.8 -9.9 -9.999 -99.9 -99.99 -9.99
2019/12/11 08:24 PST    6.21   6.43 -999 -999 -999 -99.9  63.3 1023.9 -9.9 -9.999 -99.9 -99.99 -9.99
2019/12/11 08:30 PST    6.17   6.35 -999 -999 -999 -99.9  63.3 1023.9 -9.9 -9.999 -99.9 -99.99 -9.99
2019/12/11 08:36 PST    6.13   6.32 -999 -999 -999 -99.9  63.3 1024.0 -9.9 -9.999 -99.9 -99.99 -9.99
2019/12/11 08:42 PST    6.07   6.32 -999 -999 -999 -99.9  63.3 1024.1 -9.9 -9.999 -99.9 -99.99 -9.99
2019/12/11 08:48 PST    6.02   6.25 -999 -999 -999 -99.9  63.3 1024.1 -9.9 -9.999 -99.9 -99.99 -9.99
2019/12/11 08:54 PST    5.95   6.13 -999 -999 -999 -99.9  63.3 1024.0 -9.9 -9.999 -99.9 -99.99 -9.99
2019/12/11 09:00 PST    5.88   6.03 -999 -999 -999 -99.9  63.3 1023.9 -9.9 -9.999 -99.9 -99.99 -9.99
2019/12/11 09:06 PST    5.81   5.99 -999 -999 -999 -99.9  63.3 1023.9 -9.9 -9.999 -99.9 -99.99 -9.99
2019/12/11 09:12 PST    5.72   5.92 -999 -999 -999 -99.9  63.3 1023.9 -9.9 -9.999 -99.9 -99.99 -9.99
2019/12/11 09:18 PST    5.64   5.82 -999 -999 -999 -99.9  63.3 1023.7 -9.9 -9.999 -99.9 -99.99 -9.99
2019/12/11 09:24 PST    5.54   5.71 -999 -999 -999 -99.9  63.3 1023.7 -9.9 -9.999 -99.9 -99.99 -9.99
2019/12/11 09:30 PST    5.44   5.60 -999 -999 -999 -99.9  63.3 1023.7 -9.9 -9.999 -99.9 -99.99 -9.99
2019/12/11 09:36 PST    5.34   5.54 -999 -999 -999 -99.9  63.3 1023.7 -9.9 -9.999 -99.9 -99.99 -9.99
2019/12/11 09:42 PST    5.23   5.43 -999 -999 -999 -99.9  63.3 1023.6 -9.9 -9.999 -99.9 -99.99 -9.99
2019/12/11 09:48 PST    5.12   5.28 -999 -999 -999 -99.9  63.3 1023.6 -9.9 -9.999 -99.9 -99.99 -9.99
2019/12/11 09:54 PST    5.00   5.12 -999 -999 -999 -99.9  63.3 1023.6 -9.9 -9.999 -99.9 -99.99 -9.99
2019/12/11 10:00 PST    4.88   5.04 -999 -999 -999 -99.9  63.3 1023.6 -9.9 -9.999 -99.9 -99.99 -9.99
2019/12/11 10:06 PST    4.75   4.93 -999 -999 -999 -99.9  63.3 1023.7 -9.9 -9.999 -99.9 -99.99 -9.99
2019/12/11 10:12 PST    4.62   4.81 -999 -999 -999 -99.9  63.3 1023.7 -9.9 -9.999 -99.9 -99.99 -9.99
2019/12/11 10:18 PST    4.49   4.67 -999 -999 -999 -99.9  63.3 1023.7 -9.9 -9.999 -99.9 -99.99 -9.99
2019/12/11 10:24 PST    4.35   4.58 -999 -999 -999 -99.9  63.3 1023.7 -9.9 -9.999 -99.9 -99.99 -9.99
2019/12/11 10:30 PST    4.21   4.45 -999 -999 -999 -99.9  63.3 1023.7 -9.9 -9.999 -99.9 -99.99 -9.99
2019/12/11 10:36 PST    4.06   4.30 -999 -999 -999 -99.9  63.3 1023.7 -9.9 -9.999 -99.9 -99.99 -9.99
2019/12/11 10:42 PST    3.92   4.12 -999 -999 -999 -99.9  63.3 1023.6 -9.9 -9.999 -99.9 -99.99 -9.99
2019/12/11 10:48 PST    3.77   3.94 -999 -999 -999 -99.9  63.3 1023.5 -9.9 -9.999 -99.9 -99.99 -9.99
2019/12/11 10:54 PST    3.62   3.78 -999 -999 -999 -99.9  63.3 1023.5 -9.9 -9.999 -99.9 -99.99 -9.99
2019/12/11 11:00 PST    3.47   3.64 -999 -999 -999 -99.9  63.3 1023.5 -9.9 -9.999 -99.9 -99.99 -9.99
2019/12/11 11:06 PST    3.32   3.47 -999 -999 -999 -99.9  63.3 1023.4 -9.9 -9.999 -99.9 -99.99 -9.99
2019/12/11 11:12 PST    3.16   3.31 -999 -999 -999 -99.9  63.3 1023.2 -9.9 -9.999 -99.9 -99.99 -9.99
2019/12/11 11:18 PST    3.01   3.19 -999 -999 -999 -99.9  63.3 1023.1 -9.9 -9.999 -99.9 -99.99 -9.99
2019/12/11 11:24 PST    2.85   3.12 -999 -999 -999 -99.9  63.3 1023.0 -9.9 -9.999 -99.9 -99.99 -9.99
2019/12/11 11:30 PST    2.70   2.97 -999 -999 -999 -99.9  63.3 1022.9 -9.9 -9.999 -99.9 -99.99 -9.99
2019/12/11 11:36 PST    2.54   2.74 -999 -999 -999 -99.9  63.3 1022.9 -9.9 -9.999 -99.9 -99.99 -9.99
2019/12/11 11:42 PST    2.39   2.48 -999 -999 -999 -99.9  63.3 1022.7 -9.9 -9.999 -99.9 -99.99 -9.99
2019/12/11 11:48 PST    2.24   2.34 -999 -999 -999 -99.9  63.3 1022.6 -9.9 -9.999 -99.9 -99.99 -9.99
2019/12/11 11:54 PST    2.09   2.17 -999 -999 -999 -99.9  63.3 1022.6 -9.9 -9.999 -99.9 -99.99 -9.99
2019/12/11 12:00 PST    1.93   2.03 -999 -999 -999 -99.9  63.3 1022.6 -9.9 -9.999 -99.9 -99.99 -9.99
2019/12/11 12:06 PST    1.79   1.87 -999 -999 -999 -99.9  63.3 1022.5 -9.9 -9.999 -99.9 -99.99 -9.99
2019/12/11 12:12 PST    1.64   1.69 -999 -999 -999 -99.9  63.3 1022.5 -9.9 -9.999 -99.9 -99.99 -9.99
2019/12/11 12:18 PST    1.50   1.61 -999 -999 -999 -99.9  63.3 1022.5 -9.9 -9.999 -99.9 -99.99 -9.99
2019/12/11 12:24 PST    1.35   1.52 -999 -999 -999 -99.9  63.3 1022.3 -9.9 -9.999 -99.9 -99.99 -9.99
2019/12/11 12:30 PST    1.22   1.40 -999 -999 -999 -99.9  63.3 1022.1 -9.9 -9.999 -99.9 -99.99 -9.99
2019/12/11 12:36 PST    1.08   1.23 -999 -999 -999 -99.9  63.3 1022.0 -9.9 -9.999 -99.9 -99.99 -9.99
2019/12/11 12:42 PST    0.95   1.09 -999 -999 -999 -99.9  63.3 1022.0 -9.9 -9.999 -99.9 -99.99 -9.99
2019/12/11 12:48 PST    0.82   0.98 -999 -999 -999 -99.9  63.3 1021.9 -9.9 -9.999 -99.9 -99.99 -9.99
2019/12/11 12:54 PST    0.70   0.81 -999 -999 -999 -99.9  63.3 1021.9 -9.9 -9.999 -99.9 -99.99 -9.99
2019/12/11 13:00 PST    0.58   0.70 -999 -999 -999 -99.9  63.3 1021.9 -9.9 -9.999 -99.9 -99.99 -9.99
2019/12/11 13:06 PST    0.46   0.57 -999 -999 -999 -99.9  63.3 1021.8 -9.9 -9.999 -99.9 -99.99 -9.99
2019/12/11 13:12 PST    0.35   0.46 -999 -999 -999 -99.9  63.3 1021.8 -9.9 -9.999 -99.9 -99.99 -9.99
2019/12/11 13:18 PST    0.24   0.34 -999 -999 -999 -99.9  63.3 1021.7 -9.9 -9.999 -99.9 -99.99 -9.99
2019/12/11 13:24 PST    0.14   0.25 -999 -999 -999 -99.9  63.3 1021.6 -9.9 -9.999 -99.9 -99.99 -9.99
2019/12/11 13:30 PST    0.05   0.19 -999 -999 -999 -99.9  63.5 1021.5 -9.9 -9.999 -99.9 -99.99 -9.99
2019/12/11 13:36 PST   -0.04   0.12 -999 -999 -999 -99.9  63.5 1021.4 -9.9 -9.999 -99.9 -99.99 -9.99
2019/12/11 13:42 PST   -0.13   0.03 -999 -999 -999 -99.9  63.5 1021.4 -9.9 -9.999 -99.9 -99.99 -9.99
2019/12/11 13:48 PST   -0.21  -0.05 -999 -999 -999 -99.9  63.5 1021.4 -9.9 -9.999 -99.9 -99.99 -9.99
2019/12/11 13:54 PST   -0.28  -0.15 -999 -999 -999 -99.9  63.5 1021.3 -9.9 -9.999 -99.9 -99.99 -9.99
2019/12/11 14:00 PST   -0.35  -0.23 -999 -999 -999 -99.9  63.5 1021.2 -9.9 -9.999 -99.9 -99.99 -9.99
2019/12/11 14:06 PST   -0.41  -0.32 -999 -999 -999 -99.9  63.5 1021.1 -9.9 -9.999 -99.9 -99.99 -9.99
2019/12/11 14:12 PST   -0.46  -0.41 -999 -999 -999 -99.9  63.5 1021.1 -9.9 -9.999 -99.9 -99.99 -9.99
2019/12/11 14:18 PST   -0.51  -0.47 -999 -999 -999 -99.9  63.5 1021.1 -9.9 -9.999 -99.9 -99.99 -9.99
2019/12/11 14:24 PST   -0.55  -0.55 -999 -999 -999 -99.9  63.5 1021.0 -9.9 -9.999 -99.9 -99.99 -9.99
2019/12/11 14:30 PST   -0.59  -0.58 -999 -999 -999 -99.9  63.5 1021.1 -9.9 -9.999 -99.9 -99.99 -9.99
2019/12/11 14:36 PST   -0.62  -0.63 -999 -999 -999 -99.9  63.5 1021.0 -9.9 -9.999 -99.9 -99.99 -9.99
2019/12/11 14:42 PST   -0.64  -0.56 -999 -999 -999 -99.9  63.5 1021.0 -9.9 -9.999 -99.9 -99.99 -9.99
2019/12/11 14:48 PST   -0.66  -0.53 -999 -999 -999 -99.9  63.5 1021.1 -9.9 -9.999 -99.9 -99.99 -9.99
2019/12/11 14:54 PST   -0.67  -0.52 -999 -999 -999 -99.9  63.5 1021.1 -9.9 -9.999 -99.9 -99.99 -9.99
2019/12/11 15:00 PST   -0.67  -0.57 -999 -999 -999 -99.9  63.5 1021.1 -9.9 -9.999 -99.9 -99.99 -9.99
2019/12/11 15:06 PST   -0.67  -0.57 -999 -999 -999 -99.9  63.5 1021.0 -9.9 -9.999 -99.9 -99.99 -9.99
2019/12/11 15:12 PST   -0.66  -0.59 -999 -999 -999 -99.9  63.5 1021.1 -9.9 -9.999 -99.9 -99.99 -9.99
2019/12/11 15:18 PST   -0.65  -0.60 -999 -999 -999 -99.9  63.5 1021.2 -9.9 -9.999 -99.9 -99.99 -9.99
2019/12/11 15:24 PST   -0.63  -0.59 -999 -999 -999 -99.9  63.5 1021.2 -9.9 -9.999 -99.9 -99.99 -9.99
2019/12/11 15:30 PST   -0.60  -0.59 -999 -999 -999 -99.9  63.5 1021.1 -9.9 -9.999 -99.9 -99.99 -9.99
2019/12/11 15:36 PST   -0.57  -0.49 -999 -999 -999 -99.9  63.5 1021.2 -9.9 -9.999 -99.9 -99.99 -9.99
2019/12/11 15:42 PST   -0.53  -0.43 -999 -999 -999 -99.9  63.5 1021.2 -9.9 -9.999 -99.9 -99.99 -9.99
2019/12/11 15:48 PST   -0.49  -0.32 -999 -999 -999 -99.9  63.5 1021.1 -9.9 -9.999 -99.9 -99.99 -9.99
2019/12/11 15:54 PST   -0.44  -0.27 -999 -999 -999 -99.9  63.5 1021.1 -9.9 -9.999 -99.9 -99.99 -9.99
2019/12/11 16:00 PST   -0.38  -0.20 -999 -999 -999 -99.9  63.5 1021.0 -9.9 -9.999 -99.9 -99.99 -9.99
2019/12/11 16:06 PST   -0.32  -0.19 -999 -999 -999 -99.9  63.5 1020.9 -9.9 -9.999 -99.9 -99.99 -9.99
2019/12/11 16:12 PST   -0.26  -0.18 -999 -999 -999 -99.9  63.5 1020.9 -9.9 -9.999 -99.9 -99.99 -9.99
2019/12/11 16:18 PST   -0.19  -0.14 -999 -999 -999 -99.9  63.5 1021.0 -9.9 -9.999 -99.9 -99.99 -9.99
2019/12/11 16:24 PST   -0.12  -0.08 -999 -999 -999 -99.9  63.5 1021.2 -9.9 -9.999 -99.9 -99.99 -9.99
2019/12/11 16:30 PST   -0.04   0.02 -999 -999 -999 -99.9  63.5 1021.2 -9.9 -9.999 -99.9 -99.99 -9.99
2019/12/11 16:36 PST    0.04   0.10 -999 -999 -999 -99.9  63.3 1021.3 -9.9 -9.999 -99.9 -99.99 -9.99
2019/12/11 16:42 PST    0.13   0.19 -999 -999 -999 -99.9  63.3 1021.4 -9.9 -9.999 -99.9 -99.99 -9.99
2019/12/11 16:48 PST    0.22   0.28 -999 -999 -999 -99.9  63.3 1021.5 -9.9 -9.999 -99.9 -99.99 -9.99
2019/12/11 16:54 PST    0.31   0.42 -999 -999 -999 -99.9  63.3 1021.6 -9.9 -9.999 -99.9 -99.99 -9.99
2019/12/11 17:00 PST    0.41   0.53 -999 -999 -999 -99.9  63.3 1021.7 -9.9 -9.999 -99.9 -99.99 -9.99
2019/12/11 17:06 PST    0.51   0.58 -999 -999 -999 -99.9  63.3 1021.7 -9.9 -9.999 -99.9 -99.99 -9.99
2019/12/11 17:12 PST    0.61   0.63 -999 -999 -999 -99.9  63.3 1021.6 -9.9 -9.999 -99.9 -99.99 -9.99
2019/12/11 17:18 PST    0.71   0.73 -999 -999 -999 -99.9  63.3 1021.6 -9.9 -9.999 -99.9 -99.99 -9.99
2019/12/11 17:24 PST    0.82   0.84 -999 -999 -999 -99.9  63.3 1021.5 -9.9 -9.999 -99.9 -99.99 -9.99
2019/12/11 17:30 PST    0.92   0.98 -999 -999 -999 -99.9  63.3 1021.5 -9.9 -9.999 -99.9 -99.99 -9.99
2019/12/11 17:36 PST    1.03   1.10 -999 -999 -999 -99.9  63.3 1021.5 -9.9 -9.999 -99.9 -99.99 -9.99
2019/12/11 17:42 PST    1.14   1.24 -999 -999 -999 -99.9  63.3 1021.6 -9.9 -9.999 -99.9 -99.99 -9.99
2019/12/11 17:48 PST    1.25   1.34 -999 -999 -999 -99.9  63.3 1021.7 -9.9 -9.999 -99.9 -99.99 -9.99
2019/12/11 17:54 PST    1.36   1.46 -999 -999 -999 -99.9  63.3 1021.6 -9.9 -9.999 -99.9 -99.99 -9.99
2019/12/11 18:00 PST    1.47   1.57 -999 -999 -999 -99.9  63.3 1021.6 -9.9 -9.999 -99.9 -99.99 -9.99
2019/12/11 18:06 PST    1.58   1.69 -999 -999 -999 -99.9  63.3 1021.6 -9.9 -9.999 -99.9 -99.99 -9.99
2019/12/11 18:12 PST    1.70   1.74 -999 -999 -999 -99.9  63.3 1021.6 -9.9 -9.999 -99.9 -99.99 -9.99
2019/12/11 18:18 PST    1.81   1.79 -999 -999 -999 -99.9  63.3 1021.7 -9.9 -9.999 -99.9 -99.99 -9.99
2019/12/11 18:24 PST    1.92   1.92 -999 -999 -999 -99.9  63.3 1021.7 -9.9 -9.999 -99.9 -99.99 -9.99
2019/12/11 18:30 PST    2.02   2.07 -999 -999 -999 -99.9  63.3 1021.7 -9.9 -9.999 -99.9 -99.99 -9.99
2019/12/11 18:36 PST    2.13   2.21 -999 -999 -999 -99.9  63.3 1021.7 -9.9 -9.999 -99.9 -99.99 -9.99
2019/12/11 18:42 PST    2.24   2.36 -999 -999 -999 -99.9  63.3 1021.7 -9.9 -9.999 -99.9 -99.99 -9.99
2019/12/11 18:48 PST    2.34   2.46 -999 -999 -999 -99.9  63.3 1021.8 -9.9 -9.999 -99.9 -99.99 -9.99
2019/12/11 18:54 PST    2.45   2.54 -999 -999 -999 -99.9  63.3 1021.8 -9.9 -9.999 -99.9 -99.99 -9.99
2019/12/11 19:00 PST    2.55   2.65 -999 -999 -999 -99.9  63.3 1021.9 -9.9 -9.999 -99.9 -99.99 -9.99
2019/12/11 19:06 PST    2.64   2.74 -999 -999 -999 -99.9  63.3 1021.9 -9.9 -9.999 -99.9 -99.99 -9.99
2019/12/11 19:12 PST    2.74   2.77 -999 -999 -999 -99.9  63.3 1021.9 -9.9 -9.999 -99.9 -99.99 -9.99
2019/12/11 19:18 PST    2.83   2.78 -999 -999 -999 -99.9  63.3 1021.9 -9.9 -9.999 -99.9 -99.99 -9.99
2019/12/11 19:24 PST    2.92   2.87 -999 -999 -999 -99.9  63.3 1021.9 -9.9 -9.999 -99.9 -99.99 -9.99
2019/12/11 19:30 PST    3.01   2.99 -999 -999 -999 -99.9  63.3 1021.9 -9.9 -9.999 -99.9 -99.99 -9.99
2019/12/11 19:36 PST    3.09   3.12 -999 -999 -999 -99.9  63.3 1021.9 -9.9 -9.999 -99.9 -99.99 -9.99
2019/12/11 19:42 PST    3.17   3.29 -999 -999 -999 -99.9  63.3 1022.1 -9.9 -9.999 -99.9 -99.99 -9.99
2019/12/11 19:48 PST    3.24   3.36 -999 -999 -999 -99.9  63.3 1022.0 -9.9 -9.999 -99.9 -99.99 -9.99
2019/12/11 19:54 PST    3.31   3.44 -999 -999 -999 -99.9  63.3 1022.0 -9.9 -9.999 -99.9 -99.99 -9.99
2019/12/11 20:00 PST    3.38   3.49 -999 -999 -999 -99.9  63.3 1022.1 -9.9 -9.999 -99.9 -99.99 -9.99
2019/12/11 20:06 PST    3.44   3.49 -999 -999 -999 -99.9  63.3 1022.2 -9.9 -9.999 -99.9 -99.99 -9.99
2019/12/11 20:12 PST    3.50   3.50 -999 -999 -999 -99.9  63.3 1022.2 -9.9 -9.999 -99.9 -99.99 -9.99
2019/12/11 20:18 PST    3.56   3.57 -999 -999 -999 -99.9  63.3 1022.2 -9.9 -9.999 -99.9 -99.99 -9.99
2019/12/11 20:24 PST    3.61   3.63 -999 -999 -999 -99.9  63.3 1022.2 -9.9 -9.999 -99.9 -99.99 -9.99
2019/12/11 20:30 PST    3.65   3.63 -999 -999 -999 -99.9  63.3 1022.3 -9.9 -9.999 -99.9 -99.99 -9.99
2019/12/11 20:36 PST    3.69   3.70 -999 -999 -999 -99.9  63.3 1022.3 -9.9 -9.999 -99.9 -99.99 -9.99
2019/12/11 20:42 PST    3.73   3.79 -999 -999 -999 -99.9  63.3 1022.3 -9.9 -9.999 -99.9 -99.99 -9.99
2019/12/11 20:48 PST    3.76   3.84 -999 -999 -999 -99.9  63.3 1022.3 -9.9 -9.999 -99.9 -99.99 -9.99
2019/12/11 20:54 PST    3.79   3.88 -999 -999 -999 -99.9  63.3 1022.3 -9.9 -9.999 -99.9 -99.99 -9.99
2019/12/11 21:00 PST    3.81   3.89 -999 -999 -999 -99.9  63.3 1022.3 -9.9 -9.999 -99.9 -99.99 -9.99
2019/12/11 21:06 PST    3.83   3.87 -999 -999 -999 -99.9  63.3 1022.3 -9.9 -9.999 -99.9 -99.99 -9.99
2019/12/11 21:12 PST    3.84   3.86 -999 -999 -999 -99.9  63.3 1022.3 -9.9 -9.999 -99.9 -99.99 -9.99
2019/12/11 21:18 PST    3.85   3.83 -999 -999 -999 -99.9  63.3 1022.4 -9.9 -9.999 -99.9 -99.99 -9.99
2019/12/11 21:24 PST    3.85   3.88 -999 -999 -999 -99.9  63.3 1022.5 -9.9 -9.999 -99.9 -99.99 -9.99
2019/12/11 21:30 PST    3.85   3.89 -999 -999 -999 -99.9  63.3 1022.5 -9.9 -9.999 -99.9 -99.99 -9.99
2019/12/11 21:36 PST    3.85   3.89 -999 -999 -999 -99.9  63.3 1022.3 -9.9 -9.999 -99.9 -99.99 -9.99
2019/12/11 21:42 PST    3.84   3.87 -999 -999 -999 -99.9  63.3 1022.4 -9.9 -9.999 -99.9 -99.99 -9.99
2019/12/11 21:48 PST    3.82   3.90 -999 -999 -999 -99.9  63.3 1022.5 -9.9 -9.999 -99.9 -99.99 -9.99
2019/12/11 21:54 PST    3.81   3.90 -999 -999 -999 -99.9  63.3 1022.7 -9.9 -9.999 -99.9 -99.99 -9.99
2019/12/11 22:00 PST    3.79   3.91 -999 -999 -999 -99.9  63.3 1022.7 -9.9 -9.999 -99.9 -99.99 -9.99
2019/12/11 22:06 PST    3.76   3.86 -999 -999 -999 -99.9  63.3 1022.6 -9.9 -9.999 -99.9 -99.99 -9.99
2019/12/11 22:12 PST    3.73   3.80 -999 -999 -999 -99.9  63.3 1022.6 -9.9 -9.999 -99.9 -99.99 -9.99
2019/12/11 22:18 PST    3.70   3.73 -999 -999 -999 -99.9  63.3 1022.5 -9.9 -9.999 -99.9 -99.99 -9.99
2019/12/11 22:24 PST    3.67   3.74 -999 -999 -999 -99.9  63.3 1022.5 -9.9 -9.999 -99.9 -99.99 -9.99
2019/12/11 22:30 PST    3.63   3.71 -999 -999 -999 -99.9  63.3 1022.7 -9.9 -9.999 -99.9 -99.99 -9.99
2019/12/11 22:36 PST    3.59   3.64 -999 -999 -999 -99.9  63.3 1022.8 -9.9 -9.999 -99.9 -99.99 -9.99
2019/12/11 22:42 PST    3.54   3.55 -999 -999 -999 -99.9  63.3 1022.7 -9.9 -9.999 -99.9 -99.99 -9.99
2019/12/11 22:48 PST    3.50   3.54 -999 -999 -999 -99.9  63.3 1022.6 -9.9 -9.999 -99.9 -99.99 -9.99
2019/12/11 22:54 PST    3.45   3.53 -999 -999 -999 -99.9  63.3 1022.5 -9.9 -9.999 -99.9 -99.99 -9.99
2019/12/11 23:00 PST    3.40   3.48 -999 -999 -999 -99.9  63.3 1022.3 -9.9 -9.999 -99.9 -99.99 -9.99
2019/12/11 23:06 PST    3.34   3.39 -999 -999 -999 -99.9  63.3 1022.3 -9.9 -9.999 -99.9 -99.99 -9.99
2019/12/11 23:12 PST    3.29   3.33 -999 -999 -999 -99.9  63.3 1022.6 -9.9 -9.999 -99.9 -99.99 -9.99
2019/12/11 23:18 PST    3.23   3.24 -999 -999 -999 -99.9  63.3 1022.6 -9.9 -9.999 -99.9 -99.99 -9.99
2019/12/11 23:24 PST    3.18   3.20 -999 -999 -999 -99.9  63.3 1022.4 -9.9 -9.999 -99.9 -99.99 -9.99
2019/12/11 23:30 PST    3.12   3.17 -999 -999 -999 -99.9  63.3 1022.3 -9.9 -9.999 -99.9 -99.99 -9.99
2019/12/11 23:36 PST    3.06   3.17 -999 -999 -999 -99.9  63.3 1022.4 -9.9 -9.999 -99.9 -99.99 -9.99
2019/12/11 23:42 PST    3.00   3.13 -999 -999 -999 -99.9  63.3 1022.4 -9.9 -9.999 -99.9 -99.99 -9.99
2019/12/11 23:48 PST    2.94   3.07 -999 -999 -999 -99.9  63.3 1022.4 -9.9 -9.999 -99.9 -99.99 -9.99
2019/12/11 23:54 PST    2.88   3.01 -999 -999 -999 -99.9  63.3 1022.4 -9.9 -9.999 -99.9 -99.99 -9.99
2019/12/12 00:00 PST    2.83   2.96 -999 -999 -999 -99.9  63.3 1022.3 -9.9 -9.999 -99.9 -99.99 -9.99
2019/12/12 00:06 PST    2.77   2.90 -999 -999 -999 -99.9  63.3 1022.3 -9.9 -9.999 -99.9 -99.99 -9.99
2019/12/12 00:12 PST    2.71   2.82 -999 -999 -999 -99.9  63.3 1022.3 -9.9 -9.999 -99.9 -99.99 -9.99
2019/12/12 00:18 PST    2.65   2.72 -999 -999 -999 -99.9  63.3 1022.4 -9.9 -9.999 -99.9 -99.99 -9.99
2019/12/12 00:24 PST    2.60   2.65 -999 -999 -999 -99.9  63.3 1022.3 -9.9 -9.999 -99.9 -99.99 -9.99
2019/12/12 00:30 PST    2.55   2.60 -999 -999 -999 -99.9  63.3 1022.3 -9.9 -9.999 -99.9 -99.99 -9.99
2019/12/12 00:36 PST    2.49   2.61 -999 -999 -999 -99.9  63.3 1022.3 -9.9 -9.999 -99.9 -99.99 -9.99
2019/12/12 00:42 PST    2.45   2.58 -999 -999 -999 -99.9  63.3 1022.2 -9.9 -9.999 -99.9 -99.99 -9.99
2019/12/12 00:48 PST    2.40   2.57 -999 -999 -999 -99.9  63.3 1022.2 -9.9 -9.999 -99.9 -99.99 -9.99
2019/12/12 00:54 PST    2.35   2.53 -999 -999 -999 -99.9  63.3 1022.1 -9.9 -9.999 -99.9 -99.99 -9.99
2019/12/12 01:00 PST    2.31   2.53 -999 -999 -999 -99.9  63.3 1022.2 -9.9 -9.999 -99.9 -99.99 -9.99
2019/12/12 01:06 PST    2.27   2.48 -999 -999 -999 -99.9  63.3 1022.3 -9.9 -9.999 -99.9 -99.99 -9.99
2019/12/12 01:12 PST    2.24   2.42 -999 -999 -999 -99.9  63.3 1022.4 -9.9 -9.999 -99.9 -99.99 -9.99
2019/12/12 01:18 PST    2.20   2.35 -999 -999 -999 -99.9  63.3 1022.4 -9.9 -9.999 -99.9 -99.99 -9.99
2019/12/12 01:24 PST    2.17   2.30 -999 -999 -999 -99.9  63.3 1022.4 -9.9 -9.999 -99.9 -99.99 -9.99
2019/12/12 01:30 PST    2.15   2.28 -999 -999 -999 -99.9  63.3 1022.5 -9.9 -9.999 -99.9 -99.99 -9.99
2019/12/12 01:36 PST    2.12   2.28 -999 -999 -999 -99.9  63.3 1022.4 -9.9 -9.999 -99.9 -99.99 -9.99
2019/12/12 01:42 PST    2.11   2.27 -999 -999 -999 -99.9  63.3 1022.3 -9.9 -9.999 -99.9 -99.99 -9.99
2019/12/12 01:48 PST    2.09   2.25 -999 -999 -999 -99.9  63.3 1022.5 -9.9 -9.999 -99.9 -99.99 -9.99
2019/12/12 01:54 PST    2.08   2.25 -999 -999 -999 -99.9  63.3 1022.6 -9.9 -9.999 -99.9 -99.99 -9.99
2019/12/12 02:00 PST    2.07   2.30 -999 -999 -999 -99.9  63.3 1022.8 -9.9 -9.999 -99.9 -99.99 -9.99
2019/12/12 02:06 PST    2.07   2.28 -999 -999 -999 -99.9  63.3 1022.7 -9.9 -9.999 -99.9 -99.99 -9.99
2019/12/12 02:12 PST    2.08   2.26 -999 -999 -999 -99.9  63.3 1022.6 -9.9 -9.999 -99.9 -99.99 -9.99
2019/12/12 02:18 PST    2.08   2.20 -999 -999 -999 -99.9  63.3 1022.6 -9.9 -9.999 -99.9 -99.99 -9.99
2019/12/12 02:24 PST    2.09   2.20 -999 -999 -999 -99.9  63.3 1022.7 -9.9 -9.999 -99.9 -99.99 -9.99
2019/12/12 02:30 PST    2.11   2.23 -999 -999 -999 -99.9  63.3 1022.8 -9.9 -9.999 -99.9 -99.99 -9.99
2019/12/12 02:36 PST    2.13   2.28 -999 -999 -999 -99.9  63.3 1022.7 -9.9 -9.999 -99.9 -99.99 -9.99
2019/12/12 02:42 PST    2.16   2.26 -999 -999 -999 -99.9  63.3 1022.9 -9.9 -9.999 -99.9 -99.99 -9.99
2019/12/12 02:48 PST    2.19   2.28 -999 -999 -999 -99.9  63.3 1022.9 -9.9 -9.999 -99.9 -99.99 -9.99
2019/12/12 02:54 PST    2.22   2.34 -999 -999 -999 -99.9  63.3 1022.8 -9.9 -9.999 -99.9 -99.99 -9.99
2019/12/12 03:00 PST    2.26   2.44 -999 -999 -999 -99.9  63.3 1022.9 -9.9 -9.999 -99.9 -99.99 -9.99
2019/12/12 03:06 PST    2.31   2.49 -999 -999 -999 -99.9  63.3 1022.8 -9.9 -9.999 -99.9 -99.99 -9.99
2019/12/12 03:12 PST    2.35   2.56 -999 -999 -999 -99.9  63.1 1022.7 -9.9 -9.999 -99.9 -99.99 -9.99
2019/12/12 03:18 PST    2.41   2.62 -999 -999 -999 -99.9  63.1 1022.8 -9.9 -9.999 -99.9 -99.99 -9.99
2019/12/12 03:24 PST    2.46   2.63 -999 -999 -999 -99.9  63.1 1022.7 -9.9 -9.999 -99.9 -99.99 -9.99
2019/12/12 03:30 PST    2.53   2.67 -999 -999 -999 -99.9  63.1 1022.7 -9.9 -9.999 -99.9 -99.99 -9.99
2019/12/12 03:36 PST    2.59   2.75 -999 -999 -999 -99.9  63.1 1022.7 -9.9 -9.999 -99.9 -99.99 -9.99
2019/12/12 03:42 PST    2.66   2.81 -999 -999 -999 -99.9  63.1 1022.6 -9.9 -9.999 -99.9 -99.99 -9.99
2019/12/12 03:48 PST    2.74   2.89 -999 -999 -999 -99.9  63.1 1022.6 -9.9 -9.999 -99.9 -99.99 -9.99
2019/12/12 03:54 PST    2.81   2.97 -999 -999 -999 -99.9  63.1 1022.6 -9.9 -9.999 -99.9 -99.99 -9.99
2019/12/12 04:00 PST    2.89   3.06 -999 -999 -999 -99.9  63.1 1022.6 -9.9 -9.999 -99.9 -99.99 -9.99
2019/12/12 04:06 PST    2.98   3.16 -999 -999 -999 -99.9  63.1 1022.7 -9.9 -9.999 -99.9 -99.99 -9.99
2019/12/12 04:12 PST    3.07   3.29 -999 -999 -999 -99.9  63.1 1022.6 -9.9 -9.999 -99.9 -99.99 -9.99
2019/12/12 04:18 PST    3.16   3.39 -999 -999 -999 -99.9  63.1 1022.6 -9.9 -9.999 -99.9 -99.99 -9.99
2019/12/12 04:24 PST    3.25   3.43 -999 -999 -999 -99.9  63.1 1022.7 -9.9 -9.999 -99.9 -99.99 -9.99
2019/12/12 04:30 PST    3.35   3.51 -999 -999 -999 -99.9  63.1 1022.8 -9.9 -9.999 -99.9 -99.99 -9.99
2019/12/12 04:36 PST    3.45   3.57 -999 -999 -999 -99.9  63.1 1022.7 -9.9 -9.999 -99.9 -99.99 -9.99
2019/12/12 04:42 PST    3.55   3.70 -999 -999 -999 -99.9  63.1 1022.7 -9.9 -9.999 -99.9 -99.99 -9.99
2019/12/12 04:48 PST    3.65   3.81 -999 -999 -999 -99.9  63.1 1022.7 -9.9 -9.999 -99.9 -99.99 -9.99
2019/12/12 04:54 PST    3.76   3.94 -999 -999 -999 -99.9  63.1 1022.8 -9.9 -9.999 -99.9 -99.99 -9.99
2019/12/12 05:00 PST    3.86   4.05 -999 -999 -999 -99.9  63.1 1022.8 -9.9 -9.999 -99.9 -99.99 -9.99
2019/12/12 05:06 PST    3.97   4.14 -999 -999 -999 -99.9  63.1 1022.9 -9.9 -9.999 -99.9 -99.99 -9.99
2019/12/12 05:12 PST    4.08   4.29 -999 -999 -999 -99.9  63.1 1022.9 -9.9 -9.999 -99.9 -99.99 -9.99
2019/12/12 05:18 PST    4.19   4.40 -999 -999 -999 -99.9  63.1 1023.1 -9.9 -9.999 -99.9 -99.99 -9.99
2019/12/12 05:24 PST    4.30   4.51 -999 -999 -999 -99.9  63.1 1023.1 -9.9 -9.999 -99.9 -99.99 -9.99
2019/12/12 05:30 PST    4.41   4.55 -999 -999 -999 -99.9  63.1 1023.0 -9.9 -9.999 -99.9 -99.99 -9.99
2019/12/12 05:36 PST    4.52   4.63 -999 -999 -999 -99.9  63.1 1023.1 -9.9 -9.999 -99.9 -99.99 -9.99
2019/12/12 05:42 PST    4.63   4.78 -999 -999 -999 -99.9  63.1 1023.1 -9.9 -9.999 -99.9 -99.99 -9.99
2019/12/12 05:48 PST    4.74   4.89 -999 -999 -999 -99.9  63.1 1023.1 -9.9 -9.999 -99.9 -99.99 -9.99
2019/12/12 05:54 PST    4.84   5.03 -999 -999 -999 -99.9  63.1 1023.2 -9.9 -9.999 -99.9 -99.99 -9.99
2019/12/12 06:00 PST    4.95   5.09 -999 -999 -999 -99.9  63.1 1023.2 -9.9 -9.999 -99.9 -99.99 -9.99
2019/12/12 06:06 PST    5.05   5.22 -999 -999 -999 -99.9  63.1 1023.2 -9.9 -9.999 -99.9 -99.99 -9.99
2019/12/12 06:12 PST    5.16   5.34 -999 -999 -999 -99.9  63.1 1023.3 -9.9 -9.999 -99.9 -99.99 -9.99
2019/12/12 06:18 PST    5.26   5.48 -999 -999 -999 -99.9  63.1 1023.3 -9.9 -9.999 -99.9 -99.99 -9.99
2019/12/12 06:24 PST    5.36   5.57 -999 -999 -999 -99.9  63.1 1023.3 -9.9 -9.999 -99.9 -99.99 -9.99
2019/12/12 06:30 PST    5.45   5.64 -999 -999 -999 -99.9  63.1 1023.3 -9.9 -9.999 -99.9 -99.99 -9.99
2019/12/12 06:36 PST    5.54   5.67 -999 -999 -999 -99.9  63.3 1023.5 -9.9 -9.999 -99.9 -99.99 -9.99
2019/12/12 06:42 PST    5.63   5.76 -999 -999 -999 -99.9  63.3 1023.5 -9.9 -9.999 -99.9 -99.99 -9.99
2019/12/12 06:48 PST    5.72   5.82 -999 -999 -999 -99.9  63.3 1023.6 -9.9 -9.999 -99.9 -99.99 -9.99
2019/12/12 06:54 PST    5.80   5.93 -999 -999 -999 -99.9  63.3 1023.6 -9.9 -9.999 -99.9 -99.99 -9.99
2019/12/12 07:00 PST    5.88   6.05 -999 -999 -999 -99.9  63.3 1023.6 -9.9 -9.999 -99.9 -99.99 -9.99
2019/12/12 07:06 PST    5.95   6.13 -999 -999 -999 -99.9  63.3 1023.7 -9.9 -9.999 -99.9 -99.99 -9.99
2019/12/12 07:12 PST    6.02   6.17 -999 -999 -999 -99.9  63.3 1023.7 -9.9 -9.999 -99.9 -99.99 -9.99
2019/12/12 07:18 PST    6.09   6.23 -999 -999 -999 -99.9  63.3 1023.8 -9.9 -9.999 -99.9 -99.99 -9.99
2019/12/12 07:24 PST    6.15   6.27 -999 -999 -999 -99.9  63.3 1023.9 -9.9 -9.999 -99.9 -99.99 -9.99
2019/12/12 07:30 PST    6.20   6.30 -999 -999 -999 -99.9  63.3 1023.9 -9.9 -9.999 -99.9 -99.99 -9.99
2019/12/12 07:36 PST    6.25   6.34 -999 -999 -999 -99.9  63.3 1023.9 -9.9 -9.999 -99.9 -99.99 -9.99
2019/12/12 07:42 PST    6.30   6.36 -999 -999 -999 -99.9  63.3 1023.9 -9.9 -9.999 -99.9 -99.99 -9.99
2019/12/12 07:48 PST    6.33   6.42 -999 -999 -999 -99.9  63.3 1023.9 -9.9 -9.999 -99.9 -99.99 -9.99
2019/12/12 07:54 PST    6.37   6.45 -999 -999 -999 -99.9  63.3 1023.9 -9.9 -9.999 -99.9 -99.99 -9.99
2019/12/12 08:00 PST    6.39   6.52 -999 -999 -999 -99.9  63.3 1023.9 -9.9 -9.999 -99.9 -99.99 -9.99
2019/12/12 08:06 PST    6.41   6.55 -999 -999 -999 -99.9  63.3 1024.0 -9.9 -9.999 -99.9 -99.99 -9.99
2019/12/12 08:12 PST    6.43   6.57 -999 -999 -999 -99.9  63.3 1024.0 -9.9 -9.999 -99.9 -99.99 -9.99
2019/12/12 08:18 PST    6.44   6.55 -999 -999 -999 -99.9  63.3 1024.0 -9.9 -9.999 -99.9 -99.99 -9.99
2019/12/12 08:24 PST    6.44   6.54 -999 -999 -999 -99.9  63.3 1024.1 -9.9 -9.999 -99.9 -99.99 -9.99
2019/12/12 08:30 PST    6.44   6.50 -999 -999 -999 -99.9  63.3 1024.1 -9.9 -9.999 -99.9 -99.99 -9.99
2019/12/12 08:36 PST    6.42   6.50 -999 -999 -999 -99.9  63.3 1024.2 -9.9 -9.999 -99.9 -99.99 -9.99
2019/12/12 08:42 PST    6.41   6.49 -999 -999 -999 -99.9  63.3 1024.2 -9.9 -9.999 -99.9 -99.99 -9.99
2019/12/12 08:48 PST    6.38   6.46 -999 -999 -999 -99.9  63.3 1024.2 -9.9 -9.999 -99.9 -99.99 -9.99
2019/12/12 08:54 PST    6.35   6.40 -999 -999 -999 -99.9  63.3 1024.4 -9.9 -9.999 -99.9 -99.99 -9.99
2019/12/12 09:00 PST    6.32   6.37 -999 -999 -999 -99.9  63.3 1024.4 -9.9 -9.999 -99.9 -99.99 -9.99
2019/12/12 09:06 PST    6.27   6.32 -999 -999 -999 -99.9  63.3 1024.5 -9.9 -9.999 -99.9 -99.99 -9.99
2019/12/12 09:12 PST    6.22   6.30 -999 -999 -999 -99.9  63.3 1024.6 -9.9 -9.999 -99.9 -99.99 -9.99
2019/12/12 09:18 PST    6.17   6.23 -999 -999 -999 -99.9  63.3 1024.6 -9.9 -9.999 -99.9 -99.99 -9.99
2019/12/12 09:24 PST    6.11   6.17 -999 -999 -999 -99.9  63.3 1024.5 -9.9 -9.999 -99.9 -99.99 -9.99
2019/12/12 09:30 PST    6.04   6.11 -999 -999 -999 -99.9  63.3 1024.6 -9.9 -9.999 -99.9 -99.99 -9.99
2019/12/12 09:36 PST    5.96   6.05 -999 -999 -999 -99.9  63.3 1024.6 -9.9 -9.999 -99.9 -99.99 -9.99
2019/12/12 09:42 PST    5.88   5.96 -999 -999 -999 -99.9  63.3 1024.6 -9.9 -9.999 -99.9 -99.99 -9.99
2019/12/12 09:48 PST    5.80   5.85 -999 -999 -999 -99.9  63.3 1024.6 -9.9 -9.999 -99.9 -99.99 -9.99
2019/12/12 09:54 PST    5.70   5.74 -999 -999 -999 -99.9  63.3 1024.6 -9.9 -9.999 -99.9 -99.99 -9.99
2019/12/12 10:00 PST    5.61   5.60 -999 -999 -999 -99.9  63.3 1024.6 -9.9 -9.999 -99.9 -99.99 -9.99
2019/12/12 10:06 PST    5.50   5.49 -999 -999 -999 -99.9  63.3 1024.6 -9.9 -9.999 -99.9 -99.99 -9.99
2019/12/12 10:12 PST    5.39   5.44 -999 -999 -999 -99.9  63.3 1024.6 -9.9 -9.999 -99.9 -99.99 -9.99
2019/12/12 10:18 PST    5.28   5.33 -999 -999 -999 -99.9  63.3 1024.6 -9.9 -9.999 -99.9 -99.99 -9.99
2019/12/12 10:24 PST    5.16   5.25 -999 -999 -999 -99.9  63.3 1024.5 -9.9 -9.999 -99.9 -99.99 -9.99
2019/12/12 10:30 PST    5.04   5.13 -999 -999 -999 -99.9  63.3 1024.4 -9.9 -9.999 -99.9 -99.99 -9.99
2019/12/12 10:36 PST    4.91   4.95 -999 -999 -999 -99.9  63.3 1024.4 -9.9 -9.999 -99.9 -99.99 -9.99
2019/12/12 10:42 PST    4.78   4.81 -999 -999 -999 -99.9  63.3 1024.4 -9.9 -9.999 -99.9 -99.99 -9.99
2019/12/12 10:48 PST    4.65   4.65 -999 -999 -999 -99.9  63.3 1024.3 -9.9 -9.999 -99.9 -99.99 -9.99
2019/12/12 10:54 PST    4.51   4.52 -999 -999 -999 -99.9  63.3 1024.2 -9.9 -9.999 -99.9 -99.99 -9.99
2019/12/12 11:00 PST    4.36   4.34 -999 -999 -999 -99.9  63.3 1024.1 -9.9 -9.999 -99.9 -99.99 -9.99
2019/12/12 11:06 PST    4.22   4.22 -999 -999 -999 -99.9  63.3 1024.1 -9.9 -9.999 -99.9 -99.99 -9.99
2019/12/12 11:12 PST    4.07   4.09 -999 -999 -999 -99.9  63.3 1024.0 -9.9 -9.999 -99.9 -99.99 -9.99
2019/12/12 11:18 PST    3.92   3.95 -999 -999 -999 -99.9  63.3 1023.9 -9.9 -9.999 -99.9 -99.99 -9.99
2019/12/12 11:24 PST    3.77   3.78 -999 -999 -999 -99.9  63.3 1023.8 -9.9 -9.999 -99.9 -99.99 -9.99
2019/12/12 11:30 PST    3.61   3.62 -999 -999 -999 -99.9  63.3 1023.7 -9.9 -9.999 -99.9 -99.99 -9.99
2019/12/12 11:36 PST    3.46   3.43 -999 -999 -999 -99.9  63.3 1023.5 -9.9 -9.999 -99.9 -99.99 -9.99
2019/12/12 11:42 PST    3.30   3.29 -999 -999 -999 -99.9  63.3 1023.4 -9.9 -9.999 -99.9 -99.99 -9.99
2019/12/12 11:48 PST    3.14   3.16 -999 -999 -999 -99.9  63.3 1023.2 -9.9 -9.999 -99.9 -99.99 -9.99
2019/12/12 11:54 PST    2.98   3.03 -999 -999 -999 -99.9  63.3 1023.1 -9.9 -9.999 -99.9 -99.99 -9.99
2019/12/12 12:00 PST    2.82   2.85 -999 -999 -999 -99.9  63.3 1023.0 -9.9 -9.999 -99.9 -99.99 -9.99
2019/12/12 12:06 PST    2.66   2.65 -999 -999 -999 -99.9  63.3 1022.9 -9.9 -9.999 -99.9 -99.99 -9.99
2019/12/12 12:12 PST    2.50   2.46 -999 -999 -999 -99.9  63.5 1022.8 -9.9 -9.999 -99.9 -99.99 -9.99
2019/12/12 12:18 PST    2.34   2.37 -999 -999 -999 -99.9  63.5 1022.7 -9.9 -9.999 -99.9 -99.99 -9.99
2019/12/12 12:24 PST    2.18   2.23 -999 -999 -999 -99.9  63.5 1022.7 -9.9 -9.999 -99.9 -99.99 -9.99
2019/12/12 12:30 PST    2.02   2.02 -999 -999 -999 -99.9  63.5 1022.6 -9.9 -9.999 -99.9 -99.99 -9.99
2019/12/12 12:36 PST    1.87   1.84 -999 -999 -999 -99.9  63.5 1022.6 -9.9 -9.999 -99.9 -99.99 -9.99
2019/12/12 12:42 PST    1.72   1.70 -999 -999 -999 -99.9  63.5 1022.5 -9.9 -9.999 -99.9 -99.99 -9.99
2019/12/12 12:48 PST    1.56   1.61 -999 -999 -999 -99.9  63.5 1022.4 -9.9 -9.999 -99.9 -99.99 -9.99
2019/12/12 12:54 PST    1.41   1.48 -999 -999 -999 -99.9  63.5 1022.3 -9.9 -9.999 -99.9 -99.99 -9.99
2019/12/12 13:00 PST    1.27   1.28 -999 -999 -999 -99.9  63.5 1022.3 -9.9 -9.999 -99.9 -99.99 -9.99
2019/12/12 13:06 PST    1.13   1.07 -999 -999 -999 -99.9  63.5 1022.3 -9.9 -9.999 -99.9 -99.99 -9.99
2019/12/12 13:12 PST    0.98   0.90 -999 -999 -999 -99.9  63.5 1022.2 -9.9 -9.999 -99.9 -99.99 -9.99
2019/12/12 13:18 PST    0.85   0.77 -999 -999 -999 -99.9  63.5 1022.1 -9.9 -9.999 -99.9 -99.99 -9.99
2019/12/12 13:24 PST    0.72   0.70 -999 -999 -999 -99.9  63.5 1021.9 -9.9 -9.999 -99.9 -99.99 -9.99
2019/12/12 13:30 PST    0.59   0.61 -999 -999 -999 -99.9  63.5 1021.9 -9.9 -9.999 -99.9 -99.99 -9.99
2019/12/12 13:36 PST    0.46   0.48 -999 -999 -999 -99.9  63.5 1021.8 -9.9 -9.999 -99.9 -99.99 -9.99
2019/12/12 13:42 PST    0.34   0.34 -999 -999 -999 -99.9  63.7 1021.7 -9.9 -9.999 -99.9 -99.99 -9.99
2019/12/12 13:48 PST    0.23   0.24 -999 -999 -999 -99.9  63.7 1021.6 -9.9 -9.999 -99.9 -99.99 -9.99
2019/12/12 13:54 PST    0.12   0.15 -999 -999 -999 -99.9  63.7 1021.6 -9.9 -9.999 -99.9 -99.99 -9.99
2019/12/12 14:00 PST    0.01   0.05 -999 -999 -999 -99.9  63.7 1021.6 -9.9 -9.999 -99.9 -99.99 -9.99
2019/12/12 14:06 PST   -0.09  -0.09 -999 -999 -999 -99.9  63.7 1021.6 -9.9 -9.999 -99.9 -99.99 -9.99
2019/12/12 14:12 PST   -0.18  -0.21 -999 -999 -999 -99.9  63.7 1021.6 -9.9 -9.999 -99.9 -99.99 -9.99
2019/12/12 14:18 PST   -0.27  -0.26 -999 -999 -999 -99.9  63.7 1021.5 -9.9 -9.999 -99.9 -99.99 -9.99
2019/12/12 14:24 PST   -0.35  -0.32 -999 -999 -999 -99.9  63.7 1021.5 -9.9 -9.999 -99.9 -99.99 -9.99
2019/12/12 14:30 PST   -0.43  -0.42 -999 -999 -999 -99.9  63.7 1021.4 -9.9 -9.999 -99.9 -99.99 -9.99
2019/12/12 14:36 PST   -0.50  -0.51 -999 -999 -999 -99.9  63.7 1021.4 -9.9 -9.999 -99.9 -99.99 -9.99
2019/12/12 14:42 PST   -0.57  -0.60 -999 -999 -999 -99.9  63.9 1021.4 -9.9 -9.999 -99.9 -99.99 -9.99
2019/12/12 14:48 PST   -0.62  -0.64 -999 -999 -999 -99.9  63.9 1021.4 -9.9 -9.999 -99.9 -99.99 -9.99
2019/12/12 14:54 PST   -0.68  -0.72 -999 -999 -999 -99.9  63.9 1021.3 -9.9 -9.999 -99.9 -99.99 -9.99
2019/12/12 15:00 PST   -0.72  -0.75 -999 -999 -999 -99.9  63.9 1021.2 -9.9 -9.999 -99.9 -99.99 -9.99
2019/12/12 15:06 PST   -0.76  -0.83 -999 -999 -999 -99.9  63.9 1021.2 -9.9 -9.999 -99.9 -99.99 -9.99
2019/12/12 15:12 PST   -0.79  -0.79 -999 -999 -999 -99.9  63.9 1021.2 -9.9 -9.999 -99.9 -99.99 -9.99
2019/12/12 15:18 PST   -0.82  -0.79 -999 -999 -999 -99.9  63.9 1021.1 -9.9 -9.999 -99.9 -99.99 -9.99
2019/12/12 15:24 PST   -0.84  -0.80 -999 -999 -999 -99.9  63.9 1021.2 -9.9 -9.999 -99.9 -99.99 -9.99
2019/12/12 15:30 PST   -0.85  -0.87 -999 -999 -999 -99.9  63.9 1021.2 -9.9 -9.999 -99.9 -99.99 -9.99
2019/12/12 15:36 PST   -0.86  -0.87 -999 -999 -999 -99.9  63.9 1021.2 -9.9 -9.999 -99.9 -99.99 -9.99
2019/12/12 15:42 PST   -0.86  -0.86 -999 -999 -999 -99.9  63.9 1021.1 -9.9 -9.999 -99.9 -99.99 -9.99
2019/12/12 15:48 PST   -0.85  -0.90 -999 -999 -999 -99.9  63.9 1021.1 -9.9 -9.999 -99.9 -99.99 -9.99
2019/12/12 15:54 PST   -0.84  -0.88 -999 -999 -999 -99.9  63.9 1021.2 -9.9 -9.999 -99.9 -99.99 -9.99
2019/12/12 16:00 PST   -0.82  -0.85 -999 -999 -999 -99.9  63.9 1021.2 -9.9 -9.999 -99.9 -99.99 -9.99
2019/12/12 16:06 PST   -0.80  -0.81 -999 -999 -999 -99.9  63.9 1021.2 -9.9 -9.999 -99.9 -99.99 -9.99
2019/12/12 16:12 PST   -0.77  -0.75 -999 -999 -999 -99.9  63.9 1021.2 -9.9 -9.999 -99.9 -99.99 -9.99
2019/12/12 16:18 PST   -0.73  -0.65 -999 -999 -999 -99.9  63.9 1021.2 -9.9 -9.999 -99.9 -99.99 -9.99
2019/12/12 16:24 PST   -0.69  -0.61 -999 -999 -999 -99.9  63.9 1021.2 -9.9 -9.999 -99.9 -99.99 -9.99
2019/12/12 16:30 PST   -0.64  -0.59 -999 -999 -999 -99.9  63.9 1021.2 -9.9 -9.999 -99.9 -99.99 -9.99
2019/12/12 16:36 PST   -0.59  -0.59 -999 -999 -999 -99.9  63.9 1021.2 -9.9 -9.999 -99.9 -99.99 -9.99
2019/12/12 16:42 PST   -0.53  -0.52 -999 -999 -999 -99.9  63.9 1021.2 -9.9 -9.999 -99.9 -99.99 -9.99
2019/12/12 16:48 PST   -0.47  -0.47 -999 -999 -999 -99.9  63.9 1021.2 -9.9 -9.999 -99.9 -99.99 -9.99
2019/12/12 16:54 PST   -0.40  -0.37 -999 -999 -999 -99.9  63.9 1021.3 -9.9 -9.999 -99.9 -99.99 -9.99
2019/12/12 17:00 PST   -0.33  -0.30 -999 -999 -999 -99.9  63.9 1021.4 -9.9 -9.999 -99.9 -99.99 -9.99
2019/12/12 17:06 PST   -0.25  -0.19 -999 -999 -999 -99.9  63.9 1021.4 -9.9 -9.999 -99.9 -99.99 -9.99
2019/12/12 17:12 PST   -0.17  -0.07 -999 -999 -999 -99.9  63.7 1021.5 -9.9 -9.999 -99.9 -99.99 -9.99
2019/12/12 17:18 PST   -0.08   0.03 -999 -999 -999 -99.9  63.7 1021.4 -9.9 -9.999 -99.9 -99.99 -9.99
2019/12/12 17:24 PST    0.01   0.09 -999 -999 -999 -99.9  63.7 1021.4 -9.9 -9.999 -99.9 -99.99 -9.99
2019/12/12 17:30 PST    0.10   0.12 -999 -999 -999 -99.9  63.7 1021.4 -9.9 -9.999 -99.9 -99.99 -9.99
2019/12/12 17:36 PST    0.20   0.22 -999 -999 -999 -99.9  63.7 1021.5 -9.9 -9.999 -99.9 -99.99 -9.99
2019/12/12 17:42 PST    0.30   0.27 -999 -999 -999 -99.9  63.7 1021.4 -9.9 -9.999 -99.9 -99.99 -9.99
2019/12/12 17:48 PST    0.40   0.38 -999 -999 -999 -99.9  63.7 1021.4 -9.9 -9.999 -99.9 -99.99 -9.99
2019/12/12 17:54 PST    0.50   0.48 -999 -999 -999 -99.9  63.7 1021.4 -9.9 -9.999 -99.9 -99.99 -9.99
2019/12/12 18:00 PST    0.61   0.63 -999 -999 -999 -99.9  63.7 1021.4 -9.9 -9.999 -99.9 -99.99 -9.99
2019/12/12 18:06 PST    0.71   0.74 -999 -999 -999 -99.9  63.7 1021.6 -9.9 -9.999 -99.9 -99.99 -9.99
2019/12/12 18:12 PST    0.82   0.89 -999 -999 -999 -99.9  63.7 1021.6 -9.9 -9.999 -99.9 -99.99 -9.99
2019/12/12 18:18 PST    0.94   1.01 -999 -999 -999 -99.9  63.7 1021.5 -9.9 -9.999 -99.9 -99.99 -9.99
2019/12/12 18:24 PST    1.05   1.12 -999 -999 -999 -99.9  63.5 1021.5 -9.9 -9.999 -99.9 -99.99 -9.99
2019/12/12 18:30 PST    1.16   1.21 -999 -999 -999 -99.9  63.5 1021.6 -9.9 -9.999 -99.9 -99.99 -9.99
2019/12/12 18:36 PST    1.27   1.28 -999 -999 -999 -99.9  63.5 1021.6 -9.9 -9.999 -99.9 -99.99 -9.99
2019/12/12 18:42 PST    1.39   1.44 -999 -999 -999 -99.9  63.5 1021.6 -9.9 -9.999 -99.9 -99.99 -9.99
2019/12/12 18:48 PST    1.50   1.52 -999 -999 -999 -99.9  63.5 1021.6 -9.9 -9.999 -99.9 -99.99 -9.99
2019/12/12 18:54 PST    1.61   1.66 -999 -999 -999 -99.9  63.5 1021.6 -9.9 -9.999 -99.9 -99.99 -9.99
2019/12/12 19:00 PST    1.73   1.73 -999 -999 -999 -99.9  63.5 1021.6 -9.9 -9.999 -99.9 -99.99 -9.99
2019/12/12 19:06 PST    1.84   1.81 -999 -999 -999 -99.9  63.5 1021.7 -9.9 -9.999 -99.9 -99.99 -9.99
2019/12/12 19:12 PST    1.95   1.91 -999 -999 -999 -99.9  63.5 1021.7 -9.9 -9.999 -99.9 -99.99 -9.99
2019/12/12 19:18 PST    2.06   2.05 -999 -999 -999 -99.9  63.5 1021.7 -9.9 -9.999 -99.9 -99.99 -9.99
2019/12/12 19:24 PST    2.16   2.16 -999 -999 -999 -99.9  63.5 1021.7 -9.9 -9.999 -99.9 -99.99 -9.99
2019/12/12 19:30 PST    2.27   2.31 -999 -999 -999 -99.9  63.5 1021.6 -9.9 -9.999 -99.9 -99.99 -9.99
2019/12/12 19:36 PST    2.37   2.42 -999 -999 -999 -99.9  63.5 1021.6 -9.9 -9.999 -99.9 -99.99 -9.99
2019/12/12 19:42 PST    2.48   2.51 -999 -999 -999 -99.9  63.5 1021.6 -9.9 -9.999 -99.9 -99.99 -9.99
2019/12/12 19:48 PST    2.57   2.58 -999 -999 -999 -99.9  63.5 1021.6 -9.9 -9.999 -99.9 -99.99 -9.99
2019/12/12 19:54 PST    2.67   2.68 -999 -999 -999 -99.9  63.5 1021.6 -9.9 -9.999 -99.9 -99.99 -9.99
2019/12/12 20:00 PST    2.76   2.74 -999 -999 -999 -99.9  63.5 1021.6 -9.9 -9.999 -99.9 -99.99 -9.99
2019/12/12 20:06 PST    2.85   2.81 -999 -999 -999 -99.9  63.5 1021.7 -9.9 -9.999 -99.9 -99.99 -9.99
2019/12/12 20:12 PST    2.94   2.87 -999 -999 -999 -99.9  63.5 1021.8 -9.9 -9.999 -99.9 -99.99 -9.99
2019/12/12 20:18 PST    3.02   2.95 -999 -999 -999 -99.9  63.5 1021.8 -9.9 -9.999 -99.9 -99.99 -9.99
2019/12/12 20:24 PST    3.10   3.08 -999 -999 -999 -99.9  63.5 1021.8 -9.9 -9.999 -99.9 -99.99 -9.99
2019/12/12 20:30 PST    3.18   3.19 -999 -999 -999 -99.9  63.5 1021.8 -9.9 -9.999 -99.9 -99.99 -9.99
2019/12/12 20:36 PST    3.25   3.26 -999 -999 -999 -99.9  63.5 1021.8 -9.9 -9.999 -99.9 -99.99 -9.99
2019/12/12 20:42 PST    3.32   3.30 -999 -999 -999 -99.9  63.5 1021.9 -9.9 -9.999 -99.9 -99.99 -9.99
2019/12/12 20:48 PST    3.38   3.36 -999 -999 -999 -99.9  63.5 1021.9 -9.9 -9.999 -99.9 -99.99 -9.99
2019/12/12 20:54 PST    3.44   3.43 -999 -999 -999 -99.9  63.5 1022.0 -9.9 -9.999 -99.9 -99.99 -9.99
2019/12/12 21:00 PST    3.50   3.47 -999 -999 -999 -99.9  63.5 1022.0 -9.9 -9.999 -99.9 -99.99 -9.99
2019/12/12 21:06 PST    3.55   3.51 -999 -999 -999 -99.9  63.5 1022.1 -9.9 -9.999 -99.9 -99.99 -9.99
2019/12/12 21:12 PST    3.60   3.57 -999 -999 -999 -99.9  63.5 1022.0 -9.9 -9.999 -99.9 -99.99 -9.99
2019/12/12 21:18 PST    3.64   3.59 -999 -999 -999 -99.9  63.5 1021.9 -9.9 -9.999 -99.9 -99.99 -9.99
2019/12/12 21:24 PST    3.67   3.67 -999 -999 -999 -99.9  63.5 1022.0 -9.9 -9.999 -99.9 -99.99 -9.99
2019/12/12 21:30 PST    3.71   3.75 -999 -999 -999 -99.9  63.5 1022.0 -9.9 -9.999 -99.9 -99.99 -9.99
2019/12/12 21:36 PST    3.74   3.79 -999 -999 -999 -99.9  63.5 1022.1 -9.9 -9.999 -99.9 -99.99 -9.99
2019/12/12 21:42 PST    3.76   3.79 -999 -999 -999 -99.9  63.5 1022.0 -9.9 -9.999 -99.9 -99.99 -9.99
2019/12/12 21:48 PST    3.78   3.78 -999 -999 -999 -99.9  63.5 1021.9 -9.9 -9.999 -99.9 -99.99 -9.99
2019/12/12 21:54 PST    3.79   3.80 -999 -999 -999 -99.9  63.5 1021.9 -9.9 -9.999 -99.9 -99.99 -9.99
2019/12/12 22:00 PST    3.80   3.81 -999 -999 -999 -99.9  63.5 1021.8 -9.9 -9.999 -99.9 -99.99 -9.99
2019/12/12 22:06 PST    3.81   3.84 -999 -999 -999 -99.9  63.5 1021.7 -9.9 -9.999 -99.9 -99.99 -9.99
2019/12/12 22:12 PST    3.81   3.82 -999 -999 -999 -99.9  63.5 1021.6 -9.9 -9.999 -99.9 -99.99 -9.99
2019/12/12 22:18 PST    3.81   3.81 -999 -999 -999 -99.9  63.5 1021.6 -9.9 -9.999 -99.9 -99.99 -9.99
2019/12/12 22:24 PST    3.80   3.82 -999 -999 -999 -99.9  63.5 1021.6 -9.9 -9.999 -99.9 -99.99 -9.99
2019/12/12 22:30 PST    3.79   3.83 -999 -999 -999 -99.9  63.5 1021.5 -9.9 -9.999 -99.9 -99.99 -9.99
2019/12/12 22:36 PST    3.78   3.81 -999 -999 -999 -99.9  63.5 1021.6 -9.9 -9.999 -99.9 -99.99 -9.99
2019/12/12 22:42 PST    3.76   3.77 -999 -999 -999 -99.9  63.5 1021.6 -9.9 -9.999 -99.9 -99.99 -9.99
2019/12/12 22:48 PST    3.73   3.69 -999 -999 -999 -99.9  63.5 1021.7 -9.9 -9.999 -99.9 -99.99 -9.99
2019/12/12 22:54 PST    3.71   3.67 -999 -999 -999 -99.9  63.5 1021.7 -9.9 -9.999 -99.9 -99.99 -9.99
2019/12/12 23:00 PST    3.68   3.69 -999 -999 -999 -99.9  63.5 1021.7 -9.9 -9.999 -99.9 -99.99 -9.99
2019/12/12 23:06 PST    3.65   3.69 -999 -999 -999 -99.9  63.5 1021.7 -9.9 -9.999 -99.9 -99.99 -9.99
2019/12/12 23:12 PST    3.61   3.64 -999 -999 -999 -99.9  63.5 1021.8 -9.9 -9.999 -99.9 -99.99 -9.99
2019/12/12 23:18 PST    3.57   3.60 -999 -999 -999 -99.9  63.5 1021.8 -9.9 -9.999 -99.9 -99.99 -9.99
2019/12/12 23:24 PST    3.53   3.60 -999 -999 -999 -99.9  63.5 1021.7 -9.9 -9.999 -99.9 -99.99 -9.99
2019/12/12 23:30 PST    3.49   3.54 -999 -999 -999 -99.9  63.5 1021.7 -9.9 -9.999 -99.9 -99.99 -9.99
2019/12/12 23:36 PST    3.45   3.49 -999 -999 -999 -99.9  63.5 1021.8 -9.9 -9.999 -99.9 -99.99 -9.99
2019/12/12 23:42 PST    3.40   3.43 -999 -999 -999 -99.9  63.5 1021.8 -9.9 -9.999 -99.9 -99.99 -9.99
2019/12/12 23:48 PST    3.35   3.39 -999 -999 -999 -99.9  63.5 1021.8 -9.9 -9.999 -99.9 -99.99 -9.99
2019/12/12 23:54 PST    3.30   3.37 -999 -999 -999 -99.9  63.5 1021.7 -9.9 -9.999 -99.9 -99.99 -9.99
2019/12/13 00:00 PST    3.25   3.38 -999 -999 -999 -99.9  63.5 1021.6 -9.9 -9.999 -99.9 -99.99 -9.99
2019/12/13 00:06 PST    3.20   3.34 -999 -999 -999 -99.9  63.5 1021.5 -9.9 -9.999 -99.9 -99.99 -9.99
2019/12/13 00:12 PST    3.14   3.26 -999 -999 -999 -99.9  63.5 1021.5 -9.9 -9.999 -99.9 -99.99 -9.99
2019/12/13 00:18 PST    3.09   3.16 -999 -999 -999 -99.9  63.5 1021.5 -9.9 -9.999 -99.9 -99.99 -9.99
2019/12/13 00:24 PST    3.04   3.11 -999 -999 -999 -99.9  63.5 1021.5 -9.9 -9.999 -99.9 -99.99 -9.99
2019/12/13 00:30 PST    2.98   3.04 -999 -999 -999 -99.9  63.5 1021.5 -9.9 -9.999 -99.9 -99.99 -9.99
2019/12/13 00:36 PST    2.93   2.98 -999 -999 -999 -99.9  63.5 1021.5 -9.9 -9.999 -99.9 -99.99 -9.99
2019/12/13 00:42 PST    2.88   2.90 -999 -999 -999 -99.9  63.5 1021.4 -9.9 -9.999 -99.9 -99.99 -9.99
2019/12/13 00:48 PST    2.82   2.88 -999 -999 -999 -99.9  63.5 1021.4 -9.9 -9.999 -99.9 -99.99 -9.99
2019/12/13 00:54 PST    2.77   2.88 -999 -999 -999 -99.9  63.5 1021.4 -9.9 -9.999 -99.9 -99.99 -9.99
2019/12/13 01:00 PST    2.72   2.83 -999 -999 -999 -99.9  63.5 1021.5 -9.9 -9.999 -99.9 -99.99 -9.99
2019/12/13 01:06 PST    2.67   2.77 -999 -999 -999 -99.9  63.5 1021.5 -9.9 -9.999 -99.9 -99.99 -9.99
2019/12/13 01:12 PST    2.62   2.73 -999 -999 -999 -99.9  63.5 1021.6 -9.9 -9.999 -99.9 -99.99 -9.99
2019/12/13 01:18 PST    2.58   2.70 -999 -999 -999 -99.9  63.5 1021.6 -9.9 -9.999 -99.9 -99.99 -9.99
2019/12/13 01:24 PST    2.53   2.63 -999 -999 -999 -99.9  63.5 1021.7 -9.9 -9.999 -99.9 -99.99 -9.99
2019/12/13 01:30 PST    2.49   2.57 -999 -999 -999 -99.9  63.5 1021.8 -9.9 -9.999 -99.9 -99.99 -9.99
2019/12/13 01:36 PST    2.45   2.52 -999 -999 -999 -99.9  63.5 1021.9 -9.9 -9.999 -99.9 -99.99 -9.99
2019/12/13 01:42 PST    2.41   2.47 -999 -999 -999 -99.9  63.5 1021.9 -9.9 -9.999 -99.9 -99.99 -9.99
2019/12/13 01:48 PST    2.38   2.42 -999 -999 -999 -99.9  63.5 1021.8 -9.9 -9.999 -99.9 -99.99 -9.99
2019/12/13 01:54 PST    2.35   2.42 -999 -999 -999 -99.9  63.5 1021.9 -9.9 -9.999 -99.9 -99.99 -9.99
2019/12/13 02:00 PST    2.32   2.42 -999 -999 -999 -99.9  63.5 1021.9 -9.9 -9.999 -99.9 -99.99 -9.99
2019/12/13 02:06 PST    2.30   2.41 -999 -999 -999 -99.9  63.5 1021.8 -9.9 -9.999 -99.9 -99.99 -9.99
2019/12/13 02:12 PST    2.27   2.39 -999 -999 -999 -99.9  63.5 1021.8 -9.9 -9.999 -99.9 -99.99 -9.99
2019/12/13 02:18 PST    2.26   2.39 -999 -999 -999 -99.9  63.5 1021.7 -9.9 -9.999 -99.9 -99.99 -9.99
2019/12/13 02:24 PST    2.24   2.41 -999 -999 -999 -99.9  63.5 1021.7 -9.9 -9.999 -99.9 -99.99 -9.99
2019/12/13 02:30 PST    2.23   2.41 -999 -999 -999 -99.9  63.5 1021.6 -9.9 -9.999 -99.9 -99.99 -9.99
2019/12/13 02:36 PST    2.23   2.38 -999 -999 -999 -99.9  63.5 1021.6 -9.9 -9.999 -99.9 -99.99 -9.99
2019/12/13 02:42 PST    2.23   2.36 -999 -999 -999 -99.9  63.5 1021.6 -9.9 -9.999 -99.9 -99.99 -9.99
2019/12/13 02:48 PST    2.23   2.35 -999 -999 -999 -99.9  63.5 1021.7 -9.9 -9.999 -99.9 -99.99 -9.99
2019/12/13 02:54 PST    2.24   2.36 -999 -999 -999 -99.9  63.5 1021.7 -9.9 -9.999 -99.9 -99.99 -9.99
2019/12/13 03:00 PST    2.25   2.39 -999 -999 -999 -99.9  63.5 1021.6 -9.9 -9.999 -99.9 -99.99 -9.99
2019/12/13 03:06 PST    2.26   2.42 -999 -999 -999 -99.9  63.5 1021.6 -9.9 -9.999 -99.9 -99.99 -9.99
2019/12/13 03:12 PST    2.28   2.46 -999 -999 -999 -99.9  63.5 1021.5 -9.9 -9.999 -99.9 -99.99 -9.99
2019/12/13 03:18 PST    2.31   2.48 -999 -999 -999 -99.9  63.5 1021.5 -9.9 -9.999 -99.9 -99.99 -9.99
2019/12/13 03:24 PST    2.34   2.53 -999 -999 -999 -99.9  63.5 1021.5 -9.9 -9.999 -99.9 -99.99 -9.99
2019/12/13 03:30 PST    2.37   2.54 -999 -999 -999 -99.9  63.5 1021.4 -9.9 -9.999 -99.9 -99.99 -9.99
2019/12/13 03:36 PST    2.41   2.58 -999 -999 -999 -99.9  63.5 1021.3 -9.9 -9.999 -99.9 -99.99 -9.99
2019/12/13 03:42 PST    2.45   2.62 -999 -999 -999 -99.9  63.5 1021.3 -9.9 -9.999 -99.9 -99.99 -9.99
2019/12/13 03:48 PST    2.50   2.68 -999 -999 -999 -99.9  63.5 1021.3 -9.9 -9.999 -99.9 -99.99 -9.99
2019/12/13 03:54 PST    2.55   2.72 -999 -999 -999 -99.9  63.5 1021.3 -9.9 -9.999 -99.9 -99.99 -9.99
2019/12/13 04:00 PST    2.60   2.78 -999 -999 -999 -99.9  63.5 1021.1 -9.9 -9.999 -99.9 -99.99 -9.99
2019/12/13 04:06 PST    2.66   2.84 -999 -999 -999 -99.9  63.5 1021.0 -9.9 -9.999 -99.9 -99.99 -9.99
2019/12/13 04:12 PST    2.73   2.90 -999 -999 -999 -99.9  63.5 1021.0 -9.9 -9.999 -99.9 -99.99 -9.99
2019/12/13 04:18 PST    2.79   2.97 -999 -999 -999 -99.9  63.5 1020.9 -9.9 -9.999 -99.9 -99.99 -9.99
2019/12/13 04:24 PST    2.86   3.06 -999 -999 -999 -99.9  63.5 1020.9 -9.9 -9.999 -99.9 -99.99 -9.99
2019/12/13 04:30 PST    2.94   3.12 -999 -999 -999 -99.9  63.5 1021.0 -9.9 -9.999 -99.9 -99.99 -9.99
2019/12/13 04:36 PST    3.02   3.19 -999 -999 -999 -99.9  63.5 1021.1 -9.9 -9.999 -99.9 -99.99 -9.99
2019/12/13 04:42 PST    3.10   3.29 -999 -999 -999 -99.9  63.5 1021.1 -9.9 -9.999 -99.9 -99.99 -9.99
2019/12/13 04:48 PST    3.18   3.40 -999 -999 -999 -99.9  63.5 1021.1 -9.9 -9.999 -99.9 -99.99 -9.99
2019/12/13 04:54 PST    3.27   3.48 -999 -999 -999 -99.9  63.3 1021.2 -9.9 -9.999 -99.9 -99.99 -9.99
2019/12/13 05:00 PST    3.36   3.55 -999 -999 -999 -99.9  63.3 1021.2 -9.9 -9.999 -99.9 -99.99 -9.99
2019/12/13 05:06 PST    3.45   3.65 -999 -999 -999 -99.9  63.3 1021.1 -9.9 -9.999 -99.9 -99.99 -9.99
2019/12/13 05:12 PST    3.55   3.78 -999 -999 -999 -99.9  63.3 1021.1 -9.9 -9.999 -99.9 -99.99 -9.99
2019/12/13 05:18 PST    3.65   3.87 -999 -999 -999 -99.9  63.3 1021.0 -9.9 -9.999 -99.9 -99.99 -9.99
2019/12/13 05:24 PST    3.75   3.96 -999 -999 -999 -99.9  63.3 1021.0 -9.9 -9.999 -99.9 -99.99 -9.99
2019/12/13 05:30 PST    3.85   4.08 -999 -999 -999 -99.9  63.3 1021.1 -9.9 -9.999 -99.9 -99.99 -9.99
2019/12/13 05:36 PST    3.95   4.16 -999 -999 -999 -99.9  63.3 1021.1 -9.9 -9.999 -99.9 -99.99 -9.99
2019/12/13 05:42 PST    4.05   4.32 -999 -999 -999 -99.9  63.3 1021.0 -9.9 -9.999 -99.9 -99.99 -9.99
2019/12/13 05:48 PST    4.16   4.41 -999 -999 -999 -99.9  63.3 1021.0 -9.9 -9.999 -99.9 -99.99 -9.99
2019/12/13 05:54 PST    4.26   4.52 -999 -999 -999 -99.9  63.3 1021.0 -9.9 -9.999 -99.9 -99.99 -9.99
2019/12/13 06:00 PST    4.37   4.59 -999 -999 -999 -99.9  63.3 1020.9 -9.9 -9.999 -99.9 -99.99 -9.99
2019/12/13 06:06 PST    4.48   4.73 -999 -999 -999 -99.9  63.3 1020.8 -9.9 -9.999 -99.9 -99.99 -9.99
2019/12/13 06:12 PST    4.58   4.85 -999 -999 -999 -99.9  63.3 1020.9 -9.9 -9.999 -99.9 -99.99 -9.99
2019/12/13 06:18 PST    4.69   4.93 -999 -999 -999 -99.9  63.3 1020.9 -9.9 -9.999 -99.9 -99.99 -9.99
2019/12/13 06:24 PST    4.79   5.00 -999 -999 -999 -99.9  63.3 1021.0 -9.9 -9.999 -99.9 -99.99 -9.99
2019/12/13 06:30 PST    4.90   5.04 -999 -999 -999 -99.9  63.3 1021.1 -9.9 -9.999 -99.9 -99.99 -9.99
2019/12/13 06:36 PST    5.00   5.20 -999 -999 -999 -99.9  63.3 1021.3 -9.9 -9.999 -99.9 -99.99 -9.99
2019/12/13 06:42 PST    5.10   5.33 -999 -999 -999 -99.9  63.3 1021.3 -9.9 -9.999 -99.9 -99.99 -9.99
2019/12/13 06:48 PST    5.20   5.38 -999 -999 -999 -99.9  63.3 1021.4 -9.9 -9.999 -99.9 -99.99 -9.99
2019/12/13 06:54 PST    5.30   5.53 -999 -999 -999 -99.9  63.3 1021.5 -9.9 -9.999 -99.9 -99.99 -9.99
2019/12/13 07:00 PST    5.39   5.57 -999 -999 -999 -99.9  63.3 1021.6 -9.9 -9.999 -99.9 -99.99 -9.99
2019/12/13 07:06 PST    5.49   5.69 -999 -999 -999 -99.9  63.3 1021.7 -9.9 -9.999 -99.9 -99.99 -9.99
2019/12/13 07:12 PST    5.58   5.79 -999 -999 -999 -99.9  63.3 1021.8 -9.9 -9.999 -99.9 -99.99 -9.99
2019/12/13 07:18 PST    5.66   5.88 -999 -999 -999 -99.9  63.3 1021.7 -9.9 -9.999 -99.9 -99.99 -9.99
2019/12/13 07:24 PST    5.75   5.95 -999 -999 -999 -99.9  63.3 1021.7 -9.9 -9.999 -99.9 -99.99 -9.99
2019/12/13 07:30 PST    5.83   6.06 -999 -999 -999 -99.9  63.3 1021.6 -9.9 -9.999 -99.9 -99.99 -9.99
2019/12/13 07:36 PST    5.90   6.12 -999 -999 -999 -99.9  63.3 1021.6 -9.9 -9.999 -99.9 -99.99 -9.99
2019/12/13 07:42 PST    5.97   6.21 -999 -999 -999 -99.9  63.3 1021.5 -9.9 -9.999 -99.9 -99.99 -9.99
2019/12/13 07:48 PST    6.04   6.28 -999 -999 -999 -99.9  63.3 1021.5 -9.9 -9.999 -99.9 -99.99 -9.99
2019/12/13 07:54 PST    6.10   6.31 -999 -999 -999 -99.9  63.3 1021.6 -9.9 -9.999 -99.9 -99.99 -9.99
2019/12/13 08:00 PST    6.16   6.30 -999 -999 -999 -99.9  63.3 1021.6 -9.9 -9.999 -99.9 -99.99 -9.99
2019/12/13 08:06 PST    6.22   6.31 -999 -999 -999 -99.9  63.3 1021.7 -9.9 -9.999 -99.9 -99.99 -9.99
2019/12/13 08:12 PST    6.26   6.33 -999 -999 -999 -99.9  63.3 1021.7 -9.9 -9.999 -99.9 -99.99 -9.99
2019/12/13 08:18 PST    6.31   6.43 -999 -999 -999 -99.9  63.3 1021.5 -9.9 -9.999 -99.9 -99.99 -9.99
2019/12/13 08:24 PST    6.34   6.48 -999 -999 -999 -99.9  63.3 1021.6 -9.9 -9.999 -99.9 -99.99 -9.99
2019/12/13 08:30 PST    6.38   6.53 -999 -999 -999 -99.9  63.3 1021.6 -9.9 -9.999 -99.9 -99.99 -9.99
2019/12/13 08:36 PST    6.40   6.53 -999 -999 -999 -99.9  63.3 1021.6 -9.9 -9.999 -99.9 -99.99 -9.99
2019/12/13 08:42 PST    6.42   6.59 -999 -999 -999 -99.9  63.3 1021.7 -9.9 -9.999 -99.9 -99.99 -9.99
2019/12/13 08:48 PST    6.44   6.65 -999 -999 -999 -99.9  63.3 1021.8 -9.9 -9.999 -99.9 -99.99 -9.99
2019/12/13 08:54 PST    6.45   6.66 -999 -999 -999 -99.9  63.3 1021.9 -9.9 -9.999 -99.9 -99.99 -9.99
2019/12/13 09:00 PST    6.45   6.63 -999 -999 -999 -99.9  63.3 1022.0 -9.9 -9.999 -99.9 -99.99 -9.99
2019/12/13 09:06 PST    6.44   6.56 -999 -999 -999 -99.9  63.3 1022.0 -9.9 -9.999 -99.9 -99.99 -9.99
2019/12/13 09:12 PST    6.43   6.56 -999 -999 -999 -99.9  63.3 1022.0 -9.9 -9.999 -99.9 -99.99 -9.99
2019/12/13 09:18 PST    6.42   6.58 -999 -999 -999 -99.9  63.3 1021.9 -9.9 -9.999 -99.9 -99.99 -9.99
2019/12/13 09:24 PST    6.39   6.55 -999 -999 -999 -99.9  63.3 1021.9 -9.9 -9.999 -99.9 -99.99 -9.99
2019/12/13 09:30 PST    6.37   6.49 -999 -999 -999 -99.9  63.3 1021.8 -9.9 -9.999 -99.9 -99.99 -9.99
2019/12/13 09:36 PST    6.33   6.41 -999 -999 -999 -99.9  63.3 1021.8 -9.9 -9.999 -99.9 -99.99 -9.99
2019/12/13 09:42 PST    6.29   6.38 -999 -999 -999 -99.9  63.3 1021.8 -9.9 -9.999 -99.9 -99.99 -9.99
2019/12/13 09:48 PST    6.24   6.36 -999 -999 -999 -99.9  63.3 1021.7 -9.9 -9.999 -99.9 -99.99 -9.99
2019/12/13 09:54 PST    6.18   6.35 -999 -999 -999 -99.9  63.3 1021.5 -9.9 -9.999 -99.9 -99.99 -9.99
2019/12/13 10:00 PST    6.12   6.24 -999 -999 -999 -99.9  63.3 1021.5 -9.9 -9.999 -99.9 -99.99 -9.99
2019/12/13 10:06 PST    6.06   6.15 -999 -999 -999 -99.9  63.3 1021.5 -9.9 -9.999 -99.9 -99.99 -9.99
2019/12/13 10:12 PST    5.98   6.11 -999 -999 -999 -99.9  63.3 1021.5 -9.9 -9.999 -99.9 -99.99 -9.99
2019/12/13 10:18 PST    5.90   5.99 -999 -999 -999 -99.9  63.3 1021.5 -9.9 -9.999 -99.9 -99.99 -9.99
2019/12/13 10:24 PST    5.82   5.89 -999 -999 -999 -99.9  63.3 1021.5 -9.9 -9.999 -99.9 -99.99 -9.99
2019/12/13 10:30 PST    5.73   5.78 -999 -999 -999 -99.9  63.3 1021.4 -9.9 -9.999 -99.9 -99.99 -9.99
2019/12/13 10:36 PST    5.63   5.65 -999 -999 -999 -99.9  63.3 1021.4 -9.9 -9.999 -99.9 -99.99 -9.99
2019/12/13 10:42 PST    5.53   5.56 -999 -999 -999 -99.9  63.3 1021.5 -9.9 -9.999 -99.9 -99.99 -9.99
2019/12/13 10:48 PST    5.43   5.50 -999 -999 -999 -99.9  63.3 1021.5 -9.9 -9.999 -99.9 -99.99 -9.99
2019/12/13 10:54 PST    5.31   5.39 -999 -999 -999 -99.9  63.3 1021.4 -9.9 -9.999 -99.9 -99.99 -9.99
2019/12/13 11:00 PST    5.20   5.29 -999 -999 -999 -99.9  63.3 1021.3 -9.9 -9.999 -99.9 -99.99 -9.99
2019/12/13 11:06 PST    5.08   5.20 -999 -999 -999 -99.9  63.3 1021.2 -9.9 -9.999 -99.9 -99.99 -9.99
2019/12/13 11:12 PST    4.95   5.03 -999 -999 -999 -99.9  63.3 1021.1 -9.9 -9.999 -99.9 -99.99 -9.99
2019/12/13 11:18 PST    4.82   4.87 -999 -999 -999 -99.9  63.3 1021.0 -9.9 -9.999 -99.9 -99.99 -9.99
2019/12/13 11:24 PST    4.69   4.75 -999 -999 -999 -99.9  63.3 1020.8 -9.9 -9.999 -99.9 -99.99 -9.99
2019/12/13 11:30 PST    4.55   4.57 -999 -999 -999 -99.9  63.3 1020.7 -9.9 -9.999 -99.9 -99.99 -9.99
2019/12/13 11:36 PST    4.41   4.41 -999 -999 -999 -99.9  63.3 1020.4 -9.9 -9.999 -99.9 -99.99 -9.99
2019/12/13 11:42 PST    4.27   4.29 -999 -999 -999 -99.9  63.3 1020.3 -9.9 -9.999 -99.9 -99.99 -9.99
2019/12/13 11:48 PST    4.12   4.20 -999 -999 -999 -99.9  63.3 1020.2 -9.9 -9.999 -99.9 -99.99 -9.99
2019/12/13 11:54 PST    3.97   4.04 -999 -999 -999 -99.9  63.3 1020.1 -9.9 -9.999 -99.9 -99.99 -9.99
2019/12/13 12:00 PST    3.82   3.90 -999 -999 -999 -99.9  63.3 1019.9 -9.9 -9.999 -99.9 -99.99 -9.99
2019/12/13 12:06 PST    3.66   3.76 -999 -999 -999 -99.9  63.3 1019.8 -9.9 -9.999 -99.9 -99.99 -9.99
2019/12/13 12:12 PST    3.51   3.60 -999 -999 -999 -99.9  63.3 1019.7 -9.9 -9.999 -99.9 -99.99 -9.99
2019/12/13 12:18 PST    3.35   3.45 -999 -999 -999 -99.9  63.3 1019.6 -9.9 -9.999 -99.9 -99.99 -9.99
2019/12/13 12:24 PST    3.19   3.31 -999 -999 -999 -99.9  63.3 1019.4 -9.9 -9.999 -99.9 -99.99 -9.99
2019/12/13 12:30 PST    3.03   3.10 -999 -999 -999 -99.9  63.3 1019.4 -9.9 -9.999 -99.9 -99.99 -9.99
2019/12/13 12:36 PST    2.88   2.91 -999 -999 -999 -99.9  63.3 1019.3 -9.9 -9.999 -99.9 -99.99 -9.99
2019/12/13 12:42 PST    2.72   2.78 -999 -999 -999 -99.9  63.3 1019.3 -9.9 -9.999 -99.9 -99.99 -9.99
2019/12/13 12:48 PST    2.56   2.66 -999 -999 -999 -99.9  63.5 1019.2 -9.9 -9.999 -99.9 -99.99 -9.99
2019/12/13 12:54 PST    2.40   2.50 -999 -999 -999 -99.9  63.5 1019.2 -9.9 -9.999 -99.9 -99.99 -9.99
2019/12/13 13:00 PST    2.24   2.28 -999 -999 -999 -99.9  63.5 1019.0 -9.9 -9.999 -99.9 -99.99 -9.99
2019/12/13 13:06 PST    2.08   2.13 -999 -999 -999 -99.9  63.5 1018.9 -9.9 -9.999 -99.9 -99.99 -9.99
2019/12/13 13:12 PST    1.93   2.03 -999 -999 -999 -99.9  63.5 1018.9 -9.9 -9.999 -99.9 -99.99 -9.99
2019/12/13 13:18 PST    1.77   1.88 -999 -999 -999 -99.9  63.5 1018.8 -9.9 -9.999 -99.9 -99.99 -9.99
2019/12/13 13:24 PST    1.62   1.66 -999 -999 -999 -99.9  63.5 1018.9 -9.9 -9.999 -99.9 -99.99 -9.99
2019/12/13 13:30 PST    1.47   1.47 -999 -999 -999 -99.9  63.5 1018.9 -9.9 -9.999 -99.9 -99.99 -9.99
2019/12/13 13:36 PST    1.32   1.35 -999 -999 -999 -99.9  63.5 1018.8 -9.9 -9.999 -99.9 -99.99 -9.99
2019/12/13 13:42 PST    1.18   1.29 -999 -999 -999 -99.9  63.5 1018.7 -9.9 -9.999 -99.9 -99.99 -9.99
2019/12/13 13:48 PST    1.03   1.13 -999 -999 -999 -99.9  63.5 1018.6 -9.9 -9.999 -99.9 -99.99 -9.99
2019/12/13 13:54 PST    0.90   0.96 -999 -999 -999 -99.9  63.5 1018.6 -9.9 -9.999 -99.9 -99.99 -9.99
2019/12/13 14:00 PST    0.76   0.88 -999 -999 -999 -99.9  63.5 1018.5 -9.9 -9.999 -99.9 -99.99 -9.99
2019/12/13 14:06 PST    0.63   0.74 -999 -999 -999 -99.9  63.5 1018.3 -9.9 -9.999 -99.9 -99.99 -9.99
2019/12/13 14:12 PST    0.50   0.63 -999 -999 -999 -99.9  63.5 1018.3 -9.9 -9.999 -99.9 -99.99 -9.99
2019/12/13 14:18 PST    0.38   0.47 -999 -999 -999 -99.9  63.5 1018.3 -9.9 -9.999 -99.9 -99.99 -9.99
2019/12/13 14:24 PST    0.26   0.33 -999 -999 -999 -99.9  63.5 1018.2 -9.9 -9.999 -99.9 -99.99 -9.99
2019/12/13 14:30 PST    0.15   0.16 -999 -999 -999 -99.9  63.5 1018.2 -9.9 -9.999 -99.9 -99.99 -9.99
2019/12/13 14:36 PST    0.04   0.11 -999 -999 -999 -99.9  63.5 1018.1 -9.9 -9.999 -99.9 -99.99 -9.99
2019/12/13 14:42 PST   -0.06   0.04 -999 -999 -999 -99.9  63.5 1018.0 -9.9 -9.999 -99.9 -99.99 -9.99
2019/12/13 14:48 PST   -0.16  -0.04 -999 -999 -999 -99.9  63.5 1018.0 -9.9 -9.999 -99.9 -99.99 -9.99
2019/12/13 14:54 PST   -0.25  -0.11 -999 -999 -999 -99.9  63.5 1018.0 -9.9 -9.999 -99.9 -99.99 -9.99
2019/12/13 15:00 PST   -0.34  -0.19 -999 -999 -999 -99.9  63.5 1018.0 -9.9 -9.999 -99.9 -99.99 -9.99
2019/12/13 15:06 PST   -0.42  -0.26 -999 -999 -999 -99.9  63.5 1018.1 -9.9 -9.999 -99.9 -99.99 -9.99
2019/12/13 15:12 PST   -0.50  -0.32 -999 -999 -999 -99.9  63.5 1018.1 -9.9 -9.999 -99.9 -99.99 -9.99
2019/12/13 15:18 PST   -0.57  -0.43 -999 -999 -999 -99.9  63.5 1018.0 -9.9 -9.999 -99.9 -99.99 -9.99
2019/12/13 15:24 PST   -0.63  -0.57 -999 -999 -999 -99.9  63.5 1017.9 -9.9 -9.999 -99.9 -99.99 -9.99
2019/12/13 15:30 PST   -0.69  -0.72 -999 -999 -999 -99.9  63.5 1018.0 -9.9 -9.999 -99.9 -99.99 -9.99
2019/12/13 15:36 PST   -0.74  -0.70 -999 -999 -999 -99.9  63.5 1017.9 -9.9 -9.999 -99.9 -99.99 -9.99
2019/12/13 15:42 PST   -0.78  -0.73 -999 -999 -999 -99.9  63.5 1018.0 -9.9 -9.999 -99.9 -99.99 -9.99
2019/12/13 15:48 PST   -0.82  -0.76 -999 -999 -999 -99.9  63.5 1018.1 -9.9 -9.999 -99.9 -99.99 -9.99
2019/12/13 15:54 PST   -0.85  -0.76 -999 -999 -999 -99.9  63.5 1018.0 -9.9 -9.999 -99.9 -99.99 -9.99
2019/12/13 16:00 PST   -0.88  -0.78 -999 -999 -999 -99.9  63.5 1018.0 -9.9 -9.999 -99.9 -99.99 -9.99
2019/12/13 16:06 PST   -0.90  -0.76 -999 -999 -999 -99.9  63.5 1017.9 -9.9 -9.999 -99.9 -99.99 -9.99
2019/12/13 16:12 PST   -0.91  -0.72 -999 -999 -999 -99.9  63.5 1017.9 -9.9 -9.999 -99.9 -99.99 -9.99
2019/12/13 16:18 PST   -0.91  -0.73 -999 -999 -999 -99.9  63.5 1018.0 -9.9 -9.999 -99.9 -99.99 -9.99
2019/12/13 16:24 PST   -0.91  -0.74 -999 -999 -999 -99.9  63.5 1018.0 -9.9 -9.999 -99.9 -99.99 -9.99
2019/12/13 16:30 PST   -0.91  -0.80 -999 -999 -999 -99.9  63.5 1017.8 -9.9 -9.999 -99.9 -99.99 -9.99
2019/12/13 16:36 PST   -0.90  -0.82 -999 -999 -999 -99.9  63.5 1017.8 -9.9 -9.999 -99.9 -99.99 -9.99
2019/12/13 16:42 PST   -0.88  -0.83 -999 -999 -999 -99.9  63.5 1017.9 -9.9 -9.999 -99.9 -99.99 -9.99
2019/12/13 16:48 PST   -0.85  -0.81 -999 -999 -999 -99.9  63.5 1017.9 -9.9 -9.999 -99.9 -99.99 -9.99
2019/12/13 16:54 PST   -0.82  -0.72 -999 -999 -999 -99.9  63.5 1017.9 -9.9 -9.999 -99.9 -99.99 -9.99
2019/12/13 17:00 PST   -0.79  -0.71 -999 -999 -999 -99.9  63.5 1017.9 -9.9 -9.999 -99.9 -99.99 -9.99
2019/12/13 17:06 PST   -0.74  -0.61 -999 -999 -999 -99.9  63.5 1017.9 -9.9 -9.999 -99.9 -99.99 -9.99
2019/12/13 17:12 PST   -0.70  -0.55 -999 -999 -999 -99.9  63.5 1017.9 -9.9 -9.999 -99.9 -99.99 -9.99
2019/12/13 17:18 PST   -0.64  -0.48 -999 -999 -999 -99.9  63.5 1017.9 -9.9 -9.999 -99.9 -99.99 -9.99
2019/12/13 17:24 PST   -0.59  -0.44 -999 -999 -999 -99.9  63.5 1017.9 -9.9 -9.999 -99.9 -99.99 -9.99
2019/12/13 17:30 PST   -0.52  -0.42 -999 -999 -999 -99.9  63.5 1017.9 -9.9 -9.999 -99.9 -99.99 -9.99
2019/12/13 17:36 PST   -0.46  -0.34 -999 -999 -999 -99.9  63.5 1017.8 -9.9 -9.999 -99.9 -99.99 -9.99
2019/12/13 17:42 PST   -0.39  -0.31 -999 -999 -999 -99.9  63.5 1017.8 -9.9 -9.999 -99.9 -99.99 -9.99
2019/12/13 17:48 PST   -0.31  -0.24 -999 -999 -999 -99.9  63.5 1017.8 -9.9 -9.999 -99.9 -99.99 -9.99
2019/12/13 17:54 PST   -0.23  -0.16 -999 -999 -999 -99.9  63.5 1017.8 -9.9 -9.999 -99.9 -99.99 -9.99
2019/12/13 18:00 PST   -0.15  -0.04 -999 -999 -999 -99.9  63.5 1017.7 -9.9 -9.999 -99.9 -99.99 -9.99
2019/12/13 18:06 PST   -0.06   0.08 -999 -999 -999 -99.9  63.5 1017.6 -9.9 -9.999 -99.9 -99.99 -9.99
2019/12/13 18:12 PST    0.03   0.18 -999 -999 -999 -99.9  63.5 1017.5 -9.9 -9.999 -99.9 -99.99 -9.99
2019/12/13 18:18 PST    0.13   0.28 -999 -999 -999 -99.9  63.5 1017.6 -9.9 -9.999 -99.9 -99.99 -9.99
2019/12/13 18:24 PST    0.23   0.38 -999 -999 -999 -99.9  63.5 1017.6 -9.9 -9.999 -99.9 -99.99 -9.99
2019/12/13 18:30 PST    0.32   0.50 -999 -999 -999 -99.9  63.5 1017.5 -9.9 -9.999 -99.9 -99.99 -9.99
2019/12/13 18:36 PST    0.43   0.56 -999 -999 -999 -99.9  63.5 1017.5 -9.9 -9.999 -99.9 -99.99 -9.99
2019/12/13 18:42 PST    0.53   0.63 -999 -999 -999 -99.9  63.5 1017.6 -9.9 -9.999 -99.9 -99.99 -9.99
2019/12/13 18:48 PST    0.64   0.76 -999 -999 -999 -99.9  63.5 1017.7 -9.9 -9.999 -99.9 -99.99 -9.99
2019/12/13 18:54 PST    0.75   0.91 -999 -999 -999 -99.9  63.5 1017.5 -9.9 -9.999 -99.9 -99.99 -9.99
2019/12/13 19:00 PST    0.85   1.01 -999 -999 -999 -99.9  63.5 1017.4 -9.9 -9.999 -99.9 -99.99 -9.99
2019/12/13 19:06 PST    0.96   1.07 -999 -999 -999 -99.9  63.5 1017.4 -9.9 -9.999 -99.9 -99.99 -9.99
2019/12/13 19:12 PST    1.08   1.21 -999 -999 -999 -99.9  63.5 1017.4 -9.9 -9.999 -99.9 -99.99 -9.99
2019/12/13 19:18 PST    1.19 -99.99 -999 -999 -999 -99.9 -99.9 -999.9 -9.9 -9.999 -99.9 -99.99 -9.99
2019/12/13 19:24 PST    1.30 -99.99 -999 -999 -999 -99.9 -99.9 -999.9 -9.9 -9.999 -99.9 -99.99 -9.99